Time,TemperatureF,DewpointF,PressureIn,WindDirection,WindDirectionDegrees,WindSpeedMPH,WindSpeedGustMPH,Humidity,HourlyPrecipIn,Conditions,Clouds,dailyrainin,SoftwareType,DateUTC
2013-01-18 00:00:00,26.6,22.7,30.46,North,355,0.0,2.0,85,0.00,,,0.18,Wunderground v.1.15,2013-01-18 05:00:00,
2013-01-18 00:02:00,26.5,22.6,30.46,North,355,1.0,1.0,85,0.00,,,0.18,Wunderground v.1.15,2013-01-18 05:02:00,
2013-01-18 00:04:00,26.5,22.6,30.46,North,355,0.0,1.0,85,0.00,,,0.00,Wunderground v.1.15,2013-01-18 05:04:00,
2013-01-18 00:05:00,26.5,22.6,30.46,North,350,2.0,2.0,85,0.00,,,0.00,Wunderground v.1.15,2013-01-18 05:05:00,
2013-01-18 00:06:00,26.5,22.6,30.46,North,355,0.0,2.0,85,0.00,,,0.00,Wunderground v.1.15,2013-01-18 05:06:00,
2013-01-18 00:10:00,26.5,22.6,30.46,North,355,2.0,2.0,85,0.00,,,0.00,Wunderground v.1.15,2013-01-18 05:10:00,
2013-01-18 00:11:00,26.5,22.6,30.46,North,355,3.0,3.0,85,0.00,,,0.00,Wunderground v.1.15,2013-01-18 05:11:00,
2013-01-18 00:15:00,26.5,22.6,30.46,North,355,0.0,3.0,85,0.00,,,0.00,Wunderground v.1.15,2013-01-18 05:15:00,
2013-01-18 00:16:00,26.5,22.6,30.46,North,355,0.0,3.0,85,0.00,,,0.00,Wunderground v.1.15,2013-01-18 05:16:00,
2013-01-18 00:19:00,26.5,22.6,30.46,North,355,0.0,3.0,85,0.00,,,0.00,Wunderground v.1.15,2013-01-18 05:19:00,
2013-01-18 00:21:00,26.5,22.6,30.47,North,355,0.0,1.0,85,0.00,,,0.00,Wunderground v.1.15,2013-01-18 05:21:00,
2013-01-18 00:26:00,26.4,22.5,30.47,North,355,0.0,1.0,85,0.00,,,0.00,Wunderground v.1.15,2013-01-18 05:26:00,
2013-01-18 00:27:00,26.4,22.5,30.47,North,355,0.0,1.0,85,0.00,,,0.00,Wunderground v.1.15,2013-01-18 05:27:00,
2013-01-18 00:28:00,26.4,22.5,30.47,North,355,0.0,1.0,85,0.00,,,0.00,Wunderground v.1.15,2013-01-18 05:28:00,
2013-01-18 00:32:00,26.4,22.5,30.47,North,355,0.0,0.0,85,0.00,,,0.00,Wunderground v.1.15,2013-01-18 05:32:00,
2013-01-18 00:34:00,26.4,22.5,30.47,North,355,0.0,0.0,85,0.00,,,0.00,Wunderground v.1.15,2013-01-18 05:34:00,
2013-01-18 00:37:00,26.4,22.5,30.47,North,355,0.0,0.0,85,0.00,,,0.00,Wunderground v.1.15,2013-01-18 05:37:00,
2013-01-18 00:40:00,26.3,22.4,30.47,North,355,0.0,0.0,85,0.00,,,0.00,Wunderground v.1.15,2013-01-18 05:40:00,
2013-01-18 00:46:00,26.2,22.3,30.47,North,355,0.0,1.0,85,0.00,,,0.00,Wunderground v.1.15,2013-01-18 05:46:00,
2013-01-18 00:48:00,26.1,22.2,30.47,North,355,1.0,1.0,85,0.00,,,0.00,Wunderground v.1.15,2013-01-18 05:48:00,
2013-01-18 00:52:00,26.0,22.1,30.47,North,355,1.0,1.0,85,0.00,,,0.00,Wunderground v.1.15,2013-01-18 05:52:00,
2013-01-18 00:57:00,25.7,21.8,30.47,North,355,0.0,1.0,85,0.00,,,0.00,Wunderground v.1.15,2013-01-18 05:57:00,
2013-01-18 00:58:00,25.6,21.7,30.48,North,355,0.0,1.0,85,0.00,,,0.00,Wunderground v.1.15,2013-01-18 05:58:00,
2013-01-18 01:04:00,25.4,21.8,30.48,North,355,0.0,0.0,86,0.00,,,0.00,Wunderground v.1.15,2013-01-18 06:04:00,
2013-01-18 01:05:00,25.4,21.8,30.48,North,355,0.0,0.0,86,0.00,,,0.00,Wunderground v.1.15,2013-01-18 06:05:00,
2013-01-18 01:10:00,25.4,21.8,30.48,North,355,0.0,0.0,86,0.00,,,0.00,Wunderground v.1.15,2013-01-18 06:10:00,
2013-01-18 01:11:00,25.4,21.8,30.48,North,355,0.0,0.0,86,0.00,,,0.00,Wunderground v.1.15,2013-01-18 06:11:00,
2013-01-18 01:16:00,25.4,21.8,30.48,North,355,0.0,0.0,86,0.00,,,0.00,Wunderground v.1.15,2013-01-18 06:16:00,
2013-01-18 01:17:00,25.4,21.8,30.48,North,355,0.0,0.0,86,0.00,,,0.00,Wunderground v.1.15,2013-01-18 06:17:00,
2013-01-18 01:23:00,25.4,22.1,30.48,North,355,0.0,0.0,87,0.00,,,0.00,Wunderground v.1.15,2013-01-18 06:23:00,
2013-01-18 01:24:00,25.4,22.1,30.48,North,355,0.0,0.0,87,0.00,,,0.00,Wunderground v.1.15,2013-01-18 06:24:00,
2013-01-18 01:29:00,25.4,22.1,30.48,North,355,0.0,0.0,87,0.00,,,0.00,Wunderground v.1.15,2013-01-18 06:29:00,
2013-01-18 01:31:00,25.4,22.1,30.49,North,355,0.0,0.0,87,0.00,,,0.00,Wunderground v.1.15,2013-01-18 06:31:00,
2013-01-18 01:34:00,25.3,22.0,30.49,North,355,0.0,0.0,87,0.00,,,0.00,Wunderground v.1.15,2013-01-18 06:34:00,
2013-01-18 01:35:00,25.3,22.0,30.49,North,355,0.0,0.0,87,0.00,,,0.00,Wunderground v.1.15,2013-01-18 06:35:00,
2013-01-18 01:40:00,25.1,21.8,30.49,North,355,0.0,0.0,87,0.00,,,0.00,Wunderground v.1.15,2013-01-18 06:40:00,
2013-01-18 01:41:00,25.1,21.8,30.49,North,355,0.0,0.0,87,0.00,,,0.00,Wunderground v.1.15,2013-01-18 06:41:00,
2013-01-18 01:43:00,25.0,21.7,30.49,North,355,0.0,0.0,87,0.00,,,0.00,Wunderground v.1.15,2013-01-18 06:43:00,
2013-01-18 01:46:00,24.9,21.6,30.49,North,355,0.0,0.0,87,0.00,,,0.00,Wunderground v.1.15,2013-01-18 06:46:00,
2013-01-18 01:47:00,24.8,21.5,30.49,North,355,0.0,0.0,87,0.00,,,0.00,Wunderground v.1.15,2013-01-18 06:47:00,
2013-01-18 01:49:00,24.8,21.5,30.49,North,355,0.0,0.0,87,0.00,,,0.00,Wunderground v.1.15,2013-01-18 06:49:00,
2013-01-18 01:50:00,24.8,21.5,30.49,North,355,0.0,0.0,87,0.00,,,0.00,Wunderground v.1.15,2013-01-18 06:50:00,
2013-01-18 01:54:00,24.7,21.4,30.49,North,355,0.0,0.0,87,0.00,,,0.00,Wunderground v.1.15,2013-01-18 06:54:00,
2013-01-18 01:55:00,24.7,21.4,30.49,North,355,0.0,0.0,87,0.00,,,0.00,Wunderground v.1.15,2013-01-18 06:55:00,
2013-01-18 01:56:00,24.7,21.4,30.49,North,355,0.0,0.0,87,0.00,,,0.00,Wunderground v.1.15,2013-01-18 06:56:00,
2013-01-18 01:57:00,24.6,21.3,30.49,North,355,1.0,1.0,87,0.00,,,0.00,Wunderground v.1.15,2013-01-18 06:57:00,
2013-01-18 02:01:00,24.5,21.2,30.50,North,355,1.0,2.0,87,0.00,,,0.00,Wunderground v.1.15,2013-01-18 07:01:00,
2013-01-18 02:02:00,24.4,21.1,30.50,North,355,0.0,3.0,87,0.00,,,0.00,Wunderground v.1.15,2013-01-18 07:02:00,
2013-01-18 02:06:00,24.2,20.9,30.50,North,355,1.0,3.0,87,0.00,,,0.00,Wunderground v.1.15,2013-01-18 07:06:00,
2013-01-18 02:08:00,24.1,20.8,30.50,North,355,2.0,4.0,87,0.00,,,0.00,Wunderground v.1.15,2013-01-18 07:08:00,
2013-01-18 02:11:00,24.0,20.7,30.50,North,355,0.0,2.0,87,0.00,,,0.00,Wunderground v.1.15,2013-01-18 07:11:00,
2013-01-18 02:13:00,23.9,20.6,30.50,North,355,0.0,2.0,87,0.00,,,0.00,Wunderground v.1.15,2013-01-18 07:13:00,
2013-01-18 02:16:00,23.8,20.8,30.50,North,355,0.0,2.0,88,0.00,,,0.00,Wunderground v.1.15,2013-01-18 07:16:00,
2013-01-18 02:17:00,23.8,20.8,30.50,North,355,0.0,2.0,88,0.00,,,0.00,Wunderground v.1.15,2013-01-18 07:17:00,
2013-01-18 02:18:00,23.8,20.8,30.50,North,355,0.0,2.0,88,0.00,,,0.00,Wunderground v.1.15,2013-01-18 07:18:00,
2013-01-18 02:21:00,23.7,20.7,30.50,North,355,0.0,0.0,88,0.00,,,0.00,Wunderground v.1.15,2013-01-18 07:21:00,
2013-01-18 02:22:00,23.7,20.7,30.50,North,355,0.0,0.0,88,0.00,,,0.00,Wunderground v.1.15,2013-01-18 07:22:00,
2013-01-18 02:23:00,23.7,20.7,30.50,North,355,0.0,0.0,88,0.00,,,0.00,Wunderground v.1.15,2013-01-18 07:23:00,
2013-01-18 02:27:00,23.6,20.6,30.50,North,355,0.0,2.0,88,0.00,,,0.00,Wunderground v.1.15,2013-01-18 07:27:00,
2013-01-18 02:28:00,23.6,20.6,30.50,North,355,0.0,3.0,88,0.00,,,0.00,Wunderground v.1.15,2013-01-18 07:28:00,
2013-01-18 02:32:00,23.6,20.6,30.50,North,355,0.0,0.0,88,0.00,,,0.00,Wunderground v.1.15,2013-01-18 07:32:00,
2013-01-18 02:33:00,23.6,20.6,30.50,North,355,0.0,0.0,88,0.00,,,0.00,Wunderground v.1.15,2013-01-18 07:33:00,
2013-01-18 02:37:00,23.6,20.6,30.50,North,355,0.0,0.0,88,0.00,,,0.00,Wunderground v.1.15,2013-01-18 07:37:00,
2013-01-18 02:38:00,23.6,20.6,30.50,North,355,0.0,0.0,88,0.00,,,0.00,Wunderground v.1.15,2013-01-18 07:38:00,
2013-01-18 02:42:00,23.6,20.6,30.51,North,355,0.0,0.0,88,0.00,,,0.00,Wunderground v.1.15,2013-01-18 07:42:00,
2013-01-18 02:43:00,23.6,20.6,30.51,North,355,0.0,0.0,88,0.00,,,0.00,Wunderground v.1.15,2013-01-18 07:43:00,
2013-01-18 02:47:00,23.6,20.6,30.51,North,355,0.0,0.0,88,0.00,,,0.00,Wunderground v.1.15,2013-01-18 07:47:00,
2013-01-18 02:48:00,23.5,20.5,30.51,North,355,0.0,0.0,88,0.00,,,0.00,Wunderground v.1.15,2013-01-18 07:48:00,
2013-01-18 02:49:00,23.5,20.5,30.51,North,355,0.0,0.0,88,0.00,,,0.00,Wunderground v.1.15,2013-01-18 07:49:00,
2013-01-18 02:52:00,23.5,20.5,30.51,North,355,0.0,0.0,88,0.00,,,0.00,Wunderground v.1.15,2013-01-18 07:52:00,
2013-01-18 02:53:00,23.5,20.5,30.51,North,355,0.0,0.0,88,0.00,,,0.00,Wunderground v.1.15,2013-01-18 07:53:00,
2013-01-18 02:54:00,23.5,20.5,30.51,North,355,0.0,0.0,88,0.00,,,0.00,Wunderground v.1.15,2013-01-18 07:54:00,
2013-01-18 02:57:00,23.5,20.7,30.51,North,355,0.0,0.0,89,0.00,,,0.00,Wunderground v.1.15,2013-01-18 07:57:00,
2013-01-18 02:58:00,23.4,20.6,30.52,North,355,0.0,0.0,89,0.00,,,0.00,Wunderground v.1.15,2013-01-18 07:58:00,
2013-01-18 02:59:00,23.5,20.7,30.52,North,355,0.0,0.0,89,0.00,,,0.00,Wunderground v.1.15,2013-01-18 07:59:00,
2013-01-18 03:02:00,23.5,20.7,30.51,North,355,0.0,0.0,89,0.00,,,0.00,Wunderground v.1.15,2013-01-18 08:02:00,
2013-01-18 03:03:00,23.4,20.6,30.51,North,355,0.0,0.0,89,0.00,,,0.00,Wunderground v.1.15,2013-01-18 08:03:00,
2013-01-18 03:04:00,23.4,20.6,30.51,North,355,0.0,0.0,89,0.00,,,0.00,Wunderground v.1.15,2013-01-18 08:04:00,
2013-01-18 03:07:00,23.4,20.6,30.52,North,355,0.0,0.0,89,0.00,,,0.00,Wunderground v.1.15,2013-01-18 08:07:00,
2013-01-18 03:08:00,23.5,20.7,30.52,North,355,0.0,0.0,89,0.00,,,0.00,Wunderground v.1.15,2013-01-18 08:08:00,
2013-01-18 03:09:00,23.5,20.7,30.52,North,355,0.0,0.0,89,0.00,,,0.00,Wunderground v.1.15,2013-01-18 08:09:00,
2013-01-18 03:12:00,23.5,20.7,30.52,North,355,0.0,0.0,89,0.00,,,0.00,Wunderground v.1.15,2013-01-18 08:12:00,
2013-01-18 03:13:00,23.5,20.7,30.52,North,355,0.0,0.0,89,0.00,,,0.00,Wunderground v.1.15,2013-01-18 08:13:00,
2013-01-18 03:14:00,23.5,20.7,30.52,North,355,0.0,0.0,89,0.00,,,0.00,Wunderground v.1.15,2013-01-18 08:14:00,
2013-01-18 03:15:00,23.5,20.7,30.52,North,355,0.0,0.0,89,0.00,,,0.00,Wunderground v.1.15,2013-01-18 08:15:00,
2013-01-18 03:17:00,23.5,20.7,30.52,North,355,0.0,0.0,89,0.00,,,0.00,Wunderground v.1.15,2013-01-18 08:17:00,
2013-01-18 03:18:00,23.5,20.7,30.52,North,355,0.0,0.0,89,0.00,,,0.00,Wunderground v.1.15,2013-01-18 08:18:00,
2013-01-18 03:20:00,23.5,20.7,30.52,North,355,0.0,0.0,89,0.00,,,0.00,Wunderground v.1.15,2013-01-18 08:20:00,
2013-01-18 03:23:00,23.5,20.7,30.52,North,355,0.0,0.0,89,0.00,,,0.00,Wunderground v.1.15,2013-01-18 08:23:00,
2013-01-18 03:25:00,23.5,20.7,30.52,North,355,0.0,0.0,89,0.00,,,0.00,Wunderground v.1.15,2013-01-18 08:25:00,
2013-01-18 03:28:00,23.5,20.7,30.52,North,355,0.0,0.0,89,0.00,,,0.00,Wunderground v.1.15,2013-01-18 08:28:00,
2013-01-18 03:29:00,23.5,20.7,30.52,North,355,0.0,0.0,89,0.00,,,0.00,Wunderground v.1.15,2013-01-18 08:29:00,
2013-01-18 03:30:00,23.5,20.7,30.52,North,355,0.0,0.0,89,0.00,,,0.00,Wunderground v.1.15,2013-01-18 08:30:00,
2013-01-18 03:33:00,23.6,20.8,30.52,North,355,0.0,0.0,89,0.00,,,0.00,Wunderground v.1.15,2013-01-18 08:33:00,
2013-01-18 03:34:00,23.6,20.8,30.52,North,355,0.0,0.0,89,0.00,,,0.00,Wunderground v.1.15,2013-01-18 08:34:00,
2013-01-18 03:35:00,23.6,20.8,30.52,North,355,0.0,0.0,89,0.00,,,0.00,Wunderground v.1.15,2013-01-18 08:35:00,
2013-01-18 03:38:00,23.7,20.9,30.52,North,355,0.0,0.0,89,0.00,,,0.00,Wunderground v.1.15,2013-01-18 08:38:00,
2013-01-18 03:39:00,23.7,20.7,30.52,North,355,0.0,0.0,88,0.00,,,0.00,Wunderground v.1.15,2013-01-18 08:39:00,
2013-01-18 03:40:00,23.7,20.7,30.52,North,355,0.0,0.0,88,0.00,,,0.00,Wunderground v.1.15,2013-01-18 08:40:00,
2013-01-18 03:43:00,23.7,20.7,30.52,North,355,0.0,0.0,88,0.00,,,0.00,Wunderground v.1.15,2013-01-18 08:43:00,
2013-01-18 03:44:00,23.7,20.7,30.52,North,355,0.0,0.0,88,0.00,,,0.00,Wunderground v.1.15,2013-01-18 08:44:00,
2013-01-18 03:45:00,23.7,20.7,30.52,North,355,0.0,0.0,88,0.00,,,0.00,Wunderground v.1.15,2013-01-18 08:45:00,
2013-01-18 03:46:00,23.6,20.6,30.52,North,355,0.0,0.0,88,0.00,,,0.00,Wunderground v.1.15,2013-01-18 08:46:00,
2013-01-18 03:48:00,23.6,20.6,30.52,North,355,0.0,0.0,88,0.00,,,0.00,Wunderground v.1.15,2013-01-18 08:48:00,
2013-01-18 03:49:00,23.6,20.6,30.52,North,355,0.0,0.0,88,0.00,,,0.00,Wunderground v.1.15,2013-01-18 08:49:00,
2013-01-18 03:50:00,23.5,20.5,30.52,North,355,0.0,0.0,88,0.00,,,0.00,Wunderground v.1.15,2013-01-18 08:50:00,
2013-01-18 03:51:00,23.5,20.5,30.52,North,355,0.0,0.0,88,0.00,,,0.00,Wunderground v.1.15,2013-01-18 08:51:00,
2013-01-18 03:53:00,23.5,20.5,30.52,North,355,0.0,0.0,88,0.00,,,0.00,Wunderground v.1.15,2013-01-18 08:53:00,
2013-01-18 03:54:00,23.4,20.4,30.52,North,355,0.0,0.0,88,0.00,,,0.00,Wunderground v.1.15,2013-01-18 08:54:00,
2013-01-18 03:56:00,23.4,20.4,30.52,North,355,0.0,0.0,88,0.00,,,0.00,Wunderground v.1.15,2013-01-18 08:56:00,
2013-01-18 03:58:00,23.4,20.4,30.52,North,355,0.0,0.0,88,0.00,,,0.00,Wunderground v.1.15,2013-01-18 08:58:00,
2013-01-18 03:59:00,23.4,20.4,30.52,North,355,0.0,0.0,88,0.00,,,0.00,Wunderground v.1.15,2013-01-18 08:59:00,
2013-01-18 04:01:00,23.3,20.3,30.52,North,355,0.0,0.0,88,0.00,,,0.00,Wunderground v.1.15,2013-01-18 09:01:00,
2013-01-18 04:03:00,23.3,20.3,30.52,North,355,0.0,0.0,88,0.00,,,0.00,Wunderground v.1.15,2013-01-18 09:03:00,
2013-01-18 04:04:00,23.2,20.2,30.52,North,355,0.0,0.0,88,0.00,,,0.00,Wunderground v.1.15,2013-01-18 09:04:00,
2013-01-18 04:06:00,23.2,20.2,30.52,North,355,0.0,0.0,88,0.00,,,0.00,Wunderground v.1.15,2013-01-18 09:06:00,
2013-01-18 04:07:00,23.2,20.2,30.52,North,355,0.0,0.0,88,0.00,,,0.00,Wunderground v.1.15,2013-01-18 09:07:00,
2013-01-18 04:08:00,23.1,20.1,30.52,North,355,0.0,0.0,88,0.00,,,0.00,Wunderground v.1.15,2013-01-18 09:08:00,
2013-01-18 04:09:00,23.1,20.1,30.52,North,355,0.0,0.0,88,0.00,,,0.00,Wunderground v.1.15,2013-01-18 09:09:00,
2013-01-18 04:11:00,23.1,20.1,30.52,North,355,0.0,0.0,88,0.00,,,0.00,Wunderground v.1.15,2013-01-18 09:11:00,
2013-01-18 04:12:00,23.0,20.0,30.52,North,355,0.0,0.0,88,0.00,,,0.00,Wunderground v.1.15,2013-01-18 09:12:00,
2013-01-18 04:13:00,23.0,20.0,30.52,North,355,0.0,0.0,88,0.00,,,0.00,Wunderground v.1.15,2013-01-18 09:13:00,
2013-01-18 04:14:00,22.9,19.9,30.52,North,355,0.0,0.0,88,0.00,,,0.00,Wunderground v.1.15,2013-01-18 09:14:00,
2013-01-18 04:16:00,22.8,19.8,30.52,North,355,0.0,0.0,88,0.00,,,0.00,Wunderground v.1.15,2013-01-18 09:16:00,
2013-01-18 04:17:00,22.8,19.8,30.52,North,355,0.0,0.0,88,0.00,,,0.00,Wunderground v.1.15,2013-01-18 09:17:00,
2013-01-18 04:18:00,22.7,19.7,30.52,North,355,0.0,0.0,88,0.00,,,0.00,Wunderground v.1.15,2013-01-18 09:18:00,
2013-01-18 04:20:00,22.7,19.7,30.52,North,355,0.0,0.0,88,0.00,,,0.00,Wunderground v.1.15,2013-01-18 09:20:00,
2013-01-18 04:21:00,22.7,19.7,30.52,North,355,0.0,0.0,88,0.00,,,0.00,Wunderground v.1.15,2013-01-18 09:21:00,
2013-01-18 04:22:00,22.7,19.9,30.52,North,355,0.0,0.0,89,0.00,,,0.00,Wunderground v.1.15,2013-01-18 09:22:00,
2013-01-18 04:23:00,22.6,19.8,30.52,North,355,0.0,0.0,89,0.00,,,0.00,Wunderground v.1.15,2013-01-18 09:23:00,
2013-01-18 04:25:00,22.6,19.8,30.52,North,355,0.0,0.0,89,0.00,,,0.00,Wunderground v.1.15,2013-01-18 09:25:00,
2013-01-18 04:27:00,22.5,19.5,30.52,North,355,0.0,0.0,88,0.00,,,0.00,Wunderground v.1.15,2013-01-18 09:27:00,
2013-01-18 04:29:00,22.5,19.7,30.52,North,355,0.0,0.0,89,0.00,,,0.00,Wunderground v.1.15,2013-01-18 09:29:00,
2013-01-18 04:30:00,22.4,19.6,30.52,North,355,0.0,0.0,89,0.00,,,0.00,Wunderground v.1.15,2013-01-18 09:30:00,
2013-01-18 04:32:00,22.4,19.6,30.53,North,355,0.0,0.0,89,0.00,,,0.00,Wunderground v.1.15,2013-01-18 09:32:00,
2013-01-18 04:34:00,22.4,19.6,30.53,North,355,0.0,0.0,89,0.00,,,0.00,Wunderground v.1.15,2013-01-18 09:34:00,
2013-01-18 04:36:00,22.3,19.6,30.53,North,355,0.0,0.0,89,0.00,,,0.00,Wunderground v.1.15,2013-01-18 09:36:00,
2013-01-18 04:37:00,22.2,19.5,30.53,North,355,0.0,0.0,89,0.00,,,0.00,Wunderground v.1.15,2013-01-18 09:37:00,
2013-01-18 04:38:00,22.2,19.5,30.53,North,355,0.0,0.0,89,0.00,,,0.00,Wunderground v.1.15,2013-01-18 09:38:00,
2013-01-18 04:39:00,22.2,19.5,30.52,North,355,0.0,0.0,89,0.00,,,0.00,Wunderground v.1.15,2013-01-18 09:39:00,
2013-01-18 04:41:00,22.1,19.4,30.53,North,355,0.0,0.0,89,0.00,,,0.00,Wunderground v.1.15,2013-01-18 09:41:00,
2013-01-18 04:42:00,22.1,19.4,30.53,North,355,0.0,0.0,89,0.00,,,0.00,Wunderground v.1.15,2013-01-18 09:42:00,
2013-01-18 04:43:00,22.1,19.4,30.53,North,355,0.0,0.0,89,0.00,,,0.00,Wunderground v.1.15,2013-01-18 09:43:00,
2013-01-18 04:44:00,22.0,19.3,30.53,North,355,0.0,0.0,89,0.00,,,0.00,Wunderground v.1.15,2013-01-18 09:44:00,
2013-01-18 04:46:00,22.0,19.3,30.53,North,355,0.0,0.0,89,0.00,,,0.00,Wunderground v.1.15,2013-01-18 09:46:00,
2013-01-18 04:47:00,22.0,19.3,30.52,North,355,0.0,0.0,89,0.00,,,0.00,Wunderground v.1.15,2013-01-18 09:47:00,
2013-01-18 04:48:00,21.9,19.2,30.52,North,355,0.0,0.0,89,0.00,,,0.00,Wunderground v.1.15,2013-01-18 09:48:00,
2013-01-18 04:49:00,21.9,19.2,30.52,North,355,0.0,0.0,89,0.00,,,0.00,Wunderground v.1.15,2013-01-18 09:49:00,
2013-01-18 04:51:00,21.8,19.1,30.52,North,355,0.0,0.0,89,0.00,,,0.00,Wunderground v.1.15,2013-01-18 09:51:00,
2013-01-18 04:52:00,21.8,19.1,30.52,North,355,0.0,0.0,89,0.00,,,0.00,Wunderground v.1.15,2013-01-18 09:52:00,
2013-01-18 04:53:00,21.8,19.1,30.52,North,355,0.0,0.0,89,0.00,,,0.00,Wunderground v.1.15,2013-01-18 09:53:00,
2013-01-18 04:54:00,21.8,19.1,30.52,North,355,0.0,0.0,89,0.00,,,0.00,Wunderground v.1.15,2013-01-18 09:54:00,
2013-01-18 04:56:00,21.7,19.0,30.53,North,355,0.0,0.0,89,0.00,,,0.00,Wunderground v.1.15,2013-01-18 09:56:00,
2013-01-18 04:58:00,21.7,19.0,30.53,North,355,0.0,0.0,89,0.00,,,0.00,Wunderground v.1.15,2013-01-18 09:58:00,
2013-01-18 04:59:00,21.7,19.0,30.53,North,355,0.0,0.0,89,0.00,,,0.00,Wunderground v.1.15,2013-01-18 09:59:00,
2013-01-18 05:01:00,21.7,19.0,30.53,North,355,0.0,0.0,89,0.00,,,0.00,Wunderground v.1.15,2013-01-18 10:01:00,
2013-01-18 05:03:00,21.6,19.1,30.53,North,355,0.0,0.0,90,0.00,,,0.00,Wunderground v.1.15,2013-01-18 10:03:00,
2013-01-18 05:04:00,21.6,19.1,30.53,North,355,0.0,0.0,90,0.00,,,0.00,Wunderground v.1.15,2013-01-18 10:04:00,
2013-01-18 05:06:00,21.6,19.1,30.53,North,355,0.0,0.0,90,0.00,,,0.00,Wunderground v.1.15,2013-01-18 10:06:00,
2013-01-18 05:08:00,21.5,19.0,30.53,North,355,0.0,0.0,90,0.00,,,0.00,Wunderground v.1.15,2013-01-18 10:08:00,
2013-01-18 05:09:00,21.5,19.0,30.53,North,355,0.0,0.0,90,0.00,,,0.00,Wunderground v.1.15,2013-01-18 10:09:00,
2013-01-18 05:12:00,21.5,19.0,30.53,North,355,0.0,0.0,90,0.00,,,0.00,Wunderground v.1.15,2013-01-18 10:12:00,
2013-01-18 05:14:00,21.5,19.0,30.53,North,355,0.0,0.0,90,0.00,,,0.00,Wunderground v.1.15,2013-01-18 10:14:00,
2013-01-18 05:15:00,21.5,19.0,30.53,North,355,0.0,0.0,90,0.00,,,0.00,Wunderground v.1.15,2013-01-18 10:15:00,
2013-01-18 05:17:00,21.5,19.0,30.53,North,355,0.0,0.0,90,0.00,,,0.00,Wunderground v.1.15,2013-01-18 10:17:00,
2013-01-18 05:19:00,21.5,19.0,30.53,North,355,0.0,0.0,90,0.00,,,0.00,Wunderground v.1.15,2013-01-18 10:19:00,
2013-01-18 05:20:00,21.5,19.0,30.53,North,355,0.0,0.0,90,0.00,,,0.00,Wunderground v.1.15,2013-01-18 10:20:00,
2013-01-18 05:23:00,21.4,18.9,30.54,North,355,0.0,0.0,90,0.00,,,0.00,Wunderground v.1.15,2013-01-18 10:23:00,
2013-01-18 05:24:00,21.4,18.9,30.54,North,355,0.0,0.0,90,0.00,,,0.00,Wunderground v.1.15,2013-01-18 10:24:00,
2013-01-18 05:25:00,21.4,18.9,30.54,North,355,0.0,0.0,90,0.00,,,0.00,Wunderground v.1.15,2013-01-18 10:25:00,
2013-01-18 05:28:00,21.3,18.8,30.54,North,355,0.0,0.0,90,0.00,,,0.00,Wunderground v.1.15,2013-01-18 10:28:00,
2013-01-18 05:29:00,21.3,18.8,30.53,North,355,0.0,0.0,90,0.00,,,0.00,Wunderground v.1.15,2013-01-18 10:29:00,
2013-01-18 05:30:00,21.3,18.8,30.53,North,355,0.0,0.0,90,0.00,,,0.00,Wunderground v.1.15,2013-01-18 10:30:00,
2013-01-18 05:33:00,21.2,18.7,30.53,North,355,0.0,0.0,90,0.00,,,0.00,Wunderground v.1.15,2013-01-18 10:33:00,
2013-01-18 05:34:00,21.2,18.7,30.53,North,355,0.0,0.0,90,0.00,,,0.00,Wunderground v.1.15,2013-01-18 10:34:00,
2013-01-18 05:35:00,21.2,18.7,30.53,North,355,0.0,0.0,90,0.00,,,0.00,Wunderground v.1.15,2013-01-18 10:35:00,
2013-01-18 05:36:00,21.2,18.7,30.53,North,355,0.0,0.0,90,0.00,,,0.00,Wunderground v.1.15,2013-01-18 10:36:00,
2013-01-18 05:38:00,21.1,18.6,30.53,North,355,0.0,1.0,90,0.00,,,0.00,Wunderground v.1.15,2013-01-18 10:38:00,
2013-01-18 05:39:00,21.1,18.6,30.53,North,355,2.0,2.0,90,0.00,,,0.00,Wunderground v.1.15,2013-01-18 10:39:00,
2013-01-18 05:40:00,21.1,18.6,30.53,North,355,1.0,1.0,90,0.00,,,0.00,Wunderground v.1.15,2013-01-18 10:40:00,
2013-01-18 05:41:00,21.0,18.5,30.53,North,355,1.0,2.0,90,0.00,,,0.00,Wunderground v.1.15,2013-01-18 10:41:00,
2013-01-18 05:43:00,21.0,18.5,30.53,North,355,1.0,2.0,90,0.00,,,0.00,Wunderground v.1.15,2013-01-18 10:43:00,
2013-01-18 05:45:00,21.0,18.5,30.52,North,355,2.0,2.0,90,0.00,,,0.00,Wunderground v.1.15,2013-01-18 10:45:00,
2013-01-18 05:46:00,20.9,18.4,30.52,North,355,2.0,2.0,90,0.00,,,0.00,Wunderground v.1.15,2013-01-18 10:46:00,
2013-01-18 05:49:00,20.9,18.4,30.52,North,355,0.0,2.0,90,0.00,,,0.00,Wunderground v.1.15,2013-01-18 10:49:00,
2013-01-18 05:50:00,20.9,18.4,30.52,North,355,0.0,1.0,90,0.00,,,0.00,Wunderground v.1.15,2013-01-18 10:50:00,
2013-01-18 05:51:00,20.9,18.4,30.52,North,355,0.0,1.0,90,0.00,,,0.00,Wunderground v.1.15,2013-01-18 10:51:00,
2013-01-18 05:54:00,20.9,18.4,30.52,North,355,0.0,1.0,90,0.00,,,0.00,Wunderground v.1.15,2013-01-18 10:54:00,
2013-01-18 05:56:00,20.9,18.7,30.52,North,355,0.0,1.0,91,0.00,,,0.00,Wunderground v.1.15,2013-01-18 10:56:00,
2013-01-18 05:59:00,20.8,18.3,30.52,North,355,0.0,1.0,90,0.00,,,0.00,Wunderground v.1.15,2013-01-18 10:59:00,
2013-01-18 06:01:00,20.8,18.3,30.52,North,355,0.0,0.0,90,0.00,,,0.00,Wunderground v.1.15,2013-01-18 11:01:00,
2013-01-18 06:04:00,20.8,18.6,30.52,North,355,0.0,0.0,91,0.00,,,0.00,Wunderground v.1.15,2013-01-18 11:04:00,
2013-01-18 06:06:00,20.8,18.6,30.52,North,355,0.0,0.0,91,0.00,,,0.00,Wunderground v.1.15,2013-01-18 11:06:00,
2013-01-18 06:07:00,20.7,18.5,30.52,North,355,0.0,0.0,91,0.00,,,0.00,Wunderground v.1.15,2013-01-18 11:07:00,
2013-01-18 06:09:00,20.7,18.5,30.52,North,355,0.0,0.0,91,0.00,,,0.00,Wunderground v.1.15,2013-01-18 11:09:00,
2013-01-18 06:11:00,20.7,18.5,30.52,North,355,0.0,0.0,91,0.00,,,0.00,Wunderground v.1.15,2013-01-18 11:11:00,
2013-01-18 06:12:00,20.7,18.5,30.52,North,355,0.0,0.0,91,0.00,,,0.00,Wunderground v.1.15,2013-01-18 11:12:00,
2013-01-18 06:14:00,20.6,18.4,30.52,North,355,0.0,0.0,91,0.00,,,0.00,Wunderground v.1.15,2013-01-18 11:14:00,
2013-01-18 06:16:00,20.6,18.4,30.52,North,355,0.0,0.0,91,0.00,,,0.00,Wunderground v.1.15,2013-01-18 11:16:00,
2013-01-18 06:17:00,20.6,18.4,30.52,North,355,0.0,0.0,91,0.00,,,0.00,Wunderground v.1.15,2013-01-18 11:17:00,
2013-01-18 06:20:00,20.5,18.3,30.53,North,355,0.0,0.0,91,0.00,,,0.00,Wunderground v.1.15,2013-01-18 11:20:00,
2013-01-18 06:21:00,20.4,17.9,30.52,North,355,0.0,0.0,90,0.00,,,0.00,Wunderground v.1.15,2013-01-18 11:21:00,
2013-01-18 06:22:00,20.4,17.9,30.53,North,355,0.0,0.0,90,0.00,,,0.00,Wunderground v.1.15,2013-01-18 11:22:00,
2013-01-18 06:25:00,20.3,17.8,30.52,North,355,0.0,0.0,90,0.00,,,0.00,Wunderground v.1.15,2013-01-18 11:25:00,
2013-01-18 06:26:00,20.3,17.8,30.52,North,355,0.0,0.0,90,0.00,,,0.00,Wunderground v.1.15,2013-01-18 11:26:00,
2013-01-18 06:27:00,20.3,17.8,30.52,North,355,0.0,0.0,90,0.00,,,0.00,Wunderground v.1.15,2013-01-18 11:27:00,
2013-01-18 06:30:00,20.2,17.7,30.52,North,355,1.0,1.0,90,0.00,,,0.00,Wunderground v.1.15,2013-01-18 11:30:00,
2013-01-18 06:31:00,20.2,18.0,30.52,North,355,2.0,2.0,91,0.00,,,0.00,Wunderground v.1.15,2013-01-18 11:31:00,
2013-01-18 06:32:00,20.2,18.0,30.52,North,355,2.0,2.0,91,0.00,,,0.00,Wunderground v.1.15,2013-01-18 11:32:00,
2013-01-18 06:35:00,20.3,18.1,30.52,North,355,1.0,2.0,91,0.00,,,0.00,Wunderground v.1.15,2013-01-18 11:35:00,
2013-01-18 06:36:00,20.3,18.1,30.52,North,355,1.0,2.0,91,0.00,,,0.00,Wunderground v.1.15,2013-01-18 11:36:00,
2013-01-18 06:37:00,20.3,18.1,30.52,North,355,1.0,2.0,91,0.00,,,0.00,Wunderground v.1.15,2013-01-18 11:37:00,
2013-01-18 06:40:00,20.3,18.1,30.52,North,355,0.0,1.0,91,0.00,,,0.00,Wunderground v.1.15,2013-01-18 11:40:00,
2013-01-18 06:42:00,20.3,18.1,30.52,North,355,0.0,1.0,91,0.00,,,0.00,Wunderground v.1.15,2013-01-18 11:42:00,
2013-01-18 06:43:00,20.3,18.1,30.52,North,355,0.0,1.0,91,0.00,,,0.00,Wunderground v.1.15,2013-01-18 11:43:00,
2013-01-18 06:45:00,20.3,18.1,30.52,North,355,0.0,1.0,91,0.00,,,0.00,Wunderground v.1.15,2013-01-18 11:45:00,
2013-01-18 06:47:00,20.3,18.1,30.52,North,355,0.0,1.0,91,0.00,,,0.00,Wunderground v.1.15,2013-01-18 11:47:00,
2013-01-18 06:48:00,20.2,18.0,30.52,North,355,0.0,1.0,91,0.00,,,0.00,Wunderground v.1.15,2013-01-18 11:48:00,
2013-01-18 06:51:00,20.2,18.0,30.52,North,355,0.0,0.0,91,0.00,,,0.00,Wunderground v.1.15,2013-01-18 11:51:00,
2013-01-18 06:52:00,20.1,17.9,30.52,North,355,0.0,0.0,91,0.00,,,0.00,Wunderground v.1.15,2013-01-18 11:52:00,
2013-01-18 06:53:00,20.1,17.9,30.52,North,355,0.0,0.0,91,0.00,,,0.00,Wunderground v.1.15,2013-01-18 11:53:00,
2013-01-18 06:56:00,20.0,17.8,30.52,North,355,0.0,0.0,91,0.00,,,0.00,Wunderground v.1.15,2013-01-18 11:56:00,
2013-01-18 06:57:00,20.0,17.8,30.52,North,355,0.0,0.0,91,0.00,,,0.00,Wunderground v.1.15,2013-01-18 11:57:00,
2013-01-18 06:58:00,20.0,17.8,30.52,North,355,0.0,0.0,91,0.00,,,0.00,Wunderground v.1.15,2013-01-18 11:58:00,
2013-01-18 07:01:00,20.1,17.9,30.52,North,355,0.0,0.0,91,0.00,,,0.00,Wunderground v.1.15,2013-01-18 12:01:00,
2013-01-18 07:02:00,20.1,17.9,30.52,North,355,0.0,0.0,91,0.00,,,0.00,Wunderground v.1.15,2013-01-18 12:02:00,
2013-01-18 07:03:00,20.1,17.9,30.52,North,355,0.0,0.0,91,0.00,,,0.00,Wunderground v.1.15,2013-01-18 12:03:00,
2013-01-18 07:04:00,20.1,17.9,30.52,North,355,0.0,0.0,91,0.00,,,0.00,Wunderground v.1.15,2013-01-18 12:04:00,
2013-01-18 07:06:00,20.1,17.9,30.52,North,355,0.0,0.0,91,0.00,,,0.00,Wunderground v.1.15,2013-01-18 12:06:00,
2013-01-18 07:08:00,20.1,17.9,30.52,North,355,0.0,0.0,91,0.00,,,0.00,Wunderground v.1.15,2013-01-18 12:08:00,
2013-01-18 07:09:00,20.2,18.0,30.52,North,355,0.0,0.0,91,0.00,,,0.00,Wunderground v.1.15,2013-01-18 12:09:00,
2013-01-18 07:11:00,20.2,18.0,30.52,North,355,0.0,0.0,91,0.00,,,0.00,Wunderground v.1.15,2013-01-18 12:11:00,
2013-01-18 07:13:00,20.2,18.2,30.52,North,355,0.0,0.0,92,0.00,,,0.00,Wunderground v.1.15,2013-01-18 12:13:00,
2013-01-18 07:14:00,20.2,18.2,30.52,North,355,0.0,0.0,92,0.00,,,0.00,Wunderground v.1.15,2013-01-18 12:14:00,
2013-01-18 07:16:00,20.2,18.2,30.52,North,355,0.0,0.0,92,0.00,,,0.00,Wunderground v.1.15,2013-01-18 12:16:00,
2013-01-18 07:18:00,20.2,18.2,30.52,North,355,0.0,0.0,92,0.00,,,0.00,Wunderground v.1.15,2013-01-18 12:18:00,
2013-01-18 07:19:00,20.2,18.2,30.52,North,355,0.0,0.0,92,0.00,,,0.00,Wunderground v.1.15,2013-01-18 12:19:00,
2013-01-18 07:21:00,20.2,18.2,30.52,North,355,0.0,0.0,92,0.00,,,0.00,Wunderground v.1.15,2013-01-18 12:21:00,
2013-01-18 07:24:00,20.1,18.1,30.51,North,355,0.0,0.0,92,0.00,,,0.00,Wunderground v.1.15,2013-01-18 12:24:00,
2013-01-18 07:26:00,20.0,18.1,30.51,North,355,0.0,0.0,92,0.00,,,0.00,Wunderground v.1.15,2013-01-18 12:26:00,
2013-01-18 07:29:00,20.0,18.1,30.51,North,355,0.0,0.0,92,0.00,,,0.00,Wunderground v.1.15,2013-01-18 12:29:00,
2013-01-18 07:32:00,19.9,18.0,30.51,North,355,0.0,0.0,92,0.00,,,0.00,Wunderground v.1.15,2013-01-18 12:32:00,
2013-01-18 07:34:00,19.9,17.7,30.51,North,355,0.0,0.0,91,0.00,,,0.00,Wunderground v.1.15,2013-01-18 12:34:00,
2013-01-18 07:37:00,19.8,17.6,30.52,North,355,0.0,0.0,91,0.00,,,0.00,Wunderground v.1.15,2013-01-18 12:37:00,
2013-01-18 07:39:00,19.7,17.5,30.52,North,355,0.0,0.0,91,0.00,,,0.00,Wunderground v.1.15,2013-01-18 12:39:00,
2013-01-18 07:42:00,19.7,17.5,30.52,North,355,0.0,0.0,91,0.00,,,0.00,Wunderground v.1.15,2013-01-18 12:42:00,
2013-01-18 07:44:00,19.7,17.5,30.52,North,355,0.0,0.0,91,0.00,,,0.00,Wunderground v.1.15,2013-01-18 12:44:00,
2013-01-18 07:45:00,19.7,17.5,30.52,North,355,0.0,0.0,91,0.00,,,0.00,Wunderground v.1.15,2013-01-18 12:45:00,
2013-01-18 07:47:00,19.7,17.5,30.52,North,355,0.0,0.0,91,0.00,,,0.00,Wunderground v.1.15,2013-01-18 12:47:00,
2013-01-18 07:49:00,19.7,17.5,30.52,North,355,0.0,0.0,91,0.00,,,0.00,Wunderground v.1.15,2013-01-18 12:49:00,
2013-01-18 07:50:00,19.7,17.5,30.52,North,355,0.0,0.0,91,0.00,,,0.00,Wunderground v.1.15,2013-01-18 12:50:00,
2013-01-18 07:52:00,19.6,17.4,30.53,North,355,0.0,0.0,91,0.00,,,0.00,Wunderground v.1.15,2013-01-18 12:52:00,
2013-01-18 07:54:00,19.5,17.3,30.53,North,355,0.0,0.0,91,0.00,,,0.00,Wunderground v.1.15,2013-01-18 12:54:00,
2013-01-18 07:55:00,19.5,17.3,30.53,North,355,0.0,0.0,91,0.00,,,0.00,Wunderground v.1.15,2013-01-18 12:55:00,
2013-01-18 07:58:00,19.4,17.2,30.53,North,355,0.0,0.0,91,0.00,,,0.00,Wunderground v.1.15,2013-01-18 12:58:00,
2013-01-18 07:59:00,19.4,17.2,30.53,North,355,0.0,0.0,91,0.00,,,0.00,Wunderground v.1.15,2013-01-18 12:59:00,
2013-01-18 08:00:00,19.4,17.2,30.53,North,355,0.0,0.0,91,0.00,,,0.00,Wunderground v.1.15,2013-01-18 13:00:00,
2013-01-18 08:03:00,19.3,17.1,30.54,North,355,0.0,0.0,91,0.00,,,0.00,Wunderground v.1.15,2013-01-18 13:03:00,
2013-01-18 08:05:00,19.2,17.0,30.54,North,355,0.0,0.0,91,0.00,,,0.00,Wunderground v.1.15,2013-01-18 13:05:00,
2013-01-18 08:08:00,19.1,16.9,30.54,North,355,0.0,0.0,91,0.00,,,0.00,Wunderground v.1.15,2013-01-18 13:08:00,
2013-01-18 08:10:00,19.2,17.0,30.54,North,355,0.0,0.0,91,0.00,,,0.00,Wunderground v.1.15,2013-01-18 13:10:00,
2013-01-18 08:13:00,19.2,17.0,30.54,North,355,0.0,0.0,91,0.00,,,0.00,Wunderground v.1.15,2013-01-18 13:13:00,
2013-01-18 08:15:00,19.3,17.1,30.54,North,355,0.0,0.0,91,0.00,,,0.00,Wunderground v.1.15,2013-01-18 13:15:00,
2013-01-18 08:18:00,19.5,17.3,30.54,North,355,0.0,0.0,91,0.00,,,0.00,Wunderground v.1.15,2013-01-18 13:18:00,
2013-01-18 08:20:00,19.6,17.7,30.54,North,355,0.0,0.0,92,0.00,,,0.00,Wunderground v.1.15,2013-01-18 13:20:00,
2013-01-18 08:21:00,19.7,17.8,30.53,North,355,0.0,0.0,92,0.00,,,0.00,Wunderground v.1.15,2013-01-18 13:21:00,
2013-01-18 08:23:00,19.7,17.8,30.53,North,355,0.0,0.0,92,0.00,,,0.00,Wunderground v.1.15,2013-01-18 13:23:00,
2013-01-18 08:25:00,19.9,18.0,30.53,North,355,0.0,0.0,92,0.00,,,0.00,Wunderground v.1.15,2013-01-18 13:25:00,
2013-01-18 08:26:00,20.1,18.1,30.53,North,355,0.0,0.0,92,0.00,,,0.00,Wunderground v.1.15,2013-01-18 13:26:00,
2013-01-18 08:28:00,20.2,18.2,30.53,North,355,0.0,0.0,92,0.00,,,0.00,Wunderground v.1.15,2013-01-18 13:28:00,
2013-01-18 08:30:00,20.3,18.3,30.53,North,355,0.0,0.0,92,0.00,,,0.00,Wunderground v.1.15,2013-01-18 13:30:00,
2013-01-18 08:31:00,20.3,18.3,30.53,North,355,0.0,0.0,92,0.00,,,0.00,Wunderground v.1.15,2013-01-18 13:31:00,
2013-01-18 08:33:00,20.4,18.4,30.53,North,355,0.0,0.0,92,0.00,,,0.00,Wunderground v.1.15,2013-01-18 13:33:00,
2013-01-18 08:35:00,20.5,18.5,30.53,North,355,0.0,0.0,92,0.00,,,0.00,Wunderground v.1.15,2013-01-18 13:35:00,
2013-01-18 08:36:00,20.5,18.5,30.53,North,355,0.0,0.0,92,0.00,,,0.00,Wunderground v.1.15,2013-01-18 13:36:00,
2013-01-18 08:37:00,20.5,18.5,30.53,North,355,0.0,0.0,92,0.00,,,0.00,Wunderground v.1.15,2013-01-18 13:37:00,
2013-01-18 08:38:00,20.6,18.6,30.54,North,355,0.0,0.0,92,0.00,,,0.00,Wunderground v.1.15,2013-01-18 13:38:00,
2013-01-18 08:41:00,20.7,18.7,30.54,North,355,0.0,0.0,92,0.00,,,0.00,Wunderground v.1.15,2013-01-18 13:41:00,
2013-01-18 08:42:00,20.8,18.8,30.54,North,355,0.0,0.0,92,0.00,,,0.00,Wunderground v.1.15,2013-01-18 13:42:00,
2013-01-18 08:43:00,21.0,19.0,30.54,North,355,0.0,0.0,92,0.00,,,0.00,Wunderground v.1.15,2013-01-18 13:43:00,
2013-01-18 08:46:00,21.2,19.2,30.54,North,355,0.0,0.0,92,0.00,,,0.00,Wunderground v.1.15,2013-01-18 13:46:00,
2013-01-18 08:47:00,21.4,19.7,30.54,North,355,0.0,0.0,93,0.00,,,0.00,Wunderground v.1.15,2013-01-18 13:47:00,
2013-01-18 08:48:00,21.6,19.9,30.54,North,355,0.0,0.0,93,0.00,,,0.00,Wunderground v.1.15,2013-01-18 13:48:00,
2013-01-18 08:51:00,22.0,20.3,30.54,North,355,0.0,0.0,93,0.00,,,0.00,Wunderground v.1.15,2013-01-18 13:51:00,
2013-01-18 08:52:00,22.1,20.4,30.54,North,355,0.0,0.0,93,0.00,,,0.00,Wunderground v.1.15,2013-01-18 13:52:00,
2013-01-18 08:53:00,22.2,20.5,30.54,North,355,0.0,0.0,93,0.00,,,0.00,Wunderground v.1.15,2013-01-18 13:53:00,
2013-01-18 08:57:00,22.4,20.7,30.55,North,355,0.0,0.0,93,0.00,,,0.00,Wunderground v.1.15,2013-01-18 13:57:00,
2013-01-18 08:58:00,22.5,20.8,30.55,North,355,0.0,0.0,93,0.00,,,0.00,Wunderground v.1.15,2013-01-18 13:58:00,
2013-01-18 09:02:00,22.7,21.0,30.55,North,355,0.0,0.0,93,0.00,,,0.00,Wunderground v.1.15,2013-01-18 14:02:00,
2013-01-18 09:03:00,23.1,21.4,30.55,North,355,0.0,0.0,93,0.00,,,0.00,Wunderground v.1.15,2013-01-18 14:03:00,
2013-01-18 09:07:00,23.9,22.2,30.55,North,355,0.0,0.0,93,0.00,,,0.00,Wunderground v.1.15,2013-01-18 14:07:00,
2013-01-18 09:08:00,24.2,22.5,30.55,North,355,0.0,0.0,93,0.00,,,0.00,Wunderground v.1.15,2013-01-18 14:08:00,
2013-01-18 09:09:00,24.5,22.8,30.56,North,355,0.0,0.0,93,0.00,,,0.00,Wunderground v.1.15,2013-01-18 14:09:00,
2013-01-18 09:12:00,25.2,23.7,30.56,North,355,0.0,0.0,94,0.00,,,0.00,Wunderground v.1.15,2013-01-18 14:12:00,
2013-01-18 09:13:00,25.3,23.8,30.56,North,355,0.0,0.0,94,0.00,,,0.00,Wunderground v.1.15,2013-01-18 14:13:00,
2013-01-18 09:14:00,25.4,23.9,30.56,North,355,0.0,0.0,94,0.00,,,0.00,Wunderground v.1.15,2013-01-18 14:14:00,
2013-01-18 09:17:00,26.1,24.6,30.56,North,355,0.0,0.0,94,0.00,,,0.00,Wunderground v.1.15,2013-01-18 14:17:00,
2013-01-18 09:18:00,26.1,24.6,30.56,North,355,0.0,0.0,94,0.00,,,0.00,Wunderground v.1.15,2013-01-18 14:18:00,
2013-01-18 09:19:00,26.2,24.7,30.56,North,355,0.0,0.0,94,0.00,,,0.00,Wunderground v.1.15,2013-01-18 14:19:00,
2013-01-18 09:22:00,26.8,25.3,30.56,North,355,0.0,0.0,94,0.00,,,0.00,Wunderground v.1.15,2013-01-18 14:22:00,
2013-01-18 09:23:00,26.8,25.3,30.56,North,355,0.0,0.0,94,0.00,,,0.00,Wunderground v.1.15,2013-01-18 14:23:00,
2013-01-18 09:24:00,26.9,25.1,30.56,North,355,0.0,0.0,93,0.00,,,0.00,Wunderground v.1.15,2013-01-18 14:24:00,
2013-01-18 09:27:00,27.4,25.6,30.56,North,355,0.0,0.0,93,0.00,,,0.00,Wunderground v.1.15,2013-01-18 14:27:00,
2013-01-18 09:28:00,27.4,25.6,30.56,North,355,1.0,1.0,93,0.00,,,0.00,Wunderground v.1.15,2013-01-18 14:28:00,
2013-01-18 09:29:00,27.7,25.9,30.56,North,355,1.0,3.0,93,0.00,,,0.00,Wunderground v.1.15,2013-01-18 14:29:00,
2013-01-18 09:32:00,28.3,26.3,30.56,North,355,0.0,1.0,92,0.00,,,0.00,Wunderground v.1.15,2013-01-18 14:32:00,
2013-01-18 09:33:00,28.3,26.3,30.56,North,355,0.0,1.0,92,0.00,,,0.00,Wunderground v.1.15,2013-01-18 14:33:00,
2013-01-18 09:34:00,28.4,26.4,30.56,North,355,0.0,1.0,92,0.00,,,0.00,Wunderground v.1.15,2013-01-18 14:34:00,
2013-01-18 09:37:00,28.3,25.5,30.57,North,355,0.0,1.0,89,0.00,,,0.00,Wunderground v.1.15,2013-01-18 14:37:00,
2013-01-18 09:38:00,28.3,25.5,30.57,North,355,0.0,1.0,89,0.00,,,0.00,Wunderground v.1.15,2013-01-18 14:38:00,
2013-01-18 09:39:00,28.5,25.4,30.57,North,355,0.0,3.0,88,0.00,,,0.00,Wunderground v.1.15,2013-01-18 14:39:00,
2013-01-18 09:43:00,29.0,25.3,30.57,North,355,0.0,2.0,86,0.00,,,0.00,Wunderground v.1.15,2013-01-18 14:43:00,
2013-01-18 09:44:00,29.0,25.1,30.57,North,355,0.0,2.0,85,0.00,,,0.00,Wunderground v.1.15,2013-01-18 14:44:00,
2013-01-18 09:48:00,29.3,25.1,30.57,North,355,0.0,4.0,84,0.00,,,0.00,Wunderground v.1.15,2013-01-18 14:48:00,
2013-01-18 09:49:00,29.5,25.0,30.57,North,355,0.0,4.0,83,0.00,,,0.00,Wunderground v.1.15,2013-01-18 14:49:00,
2013-01-18 09:53:00,30.1,25.3,30.57,North,355,0.0,2.0,82,0.00,,,0.00,Wunderground v.1.15,2013-01-18 14:53:00,
2013-01-18 09:54:00,30.3,25.2,30.57,North,355,0.0,2.0,81,0.00,,,0.00,Wunderground v.1.15,2013-01-18 14:54:00,
2013-01-18 09:58:00,30.5,25.4,30.57,North,355,0.0,2.0,81,0.00,,,0.00,Wunderground v.1.15,2013-01-18 14:58:00,
2013-01-18 09:59:00,30.7,25.6,30.57,North,355,0.0,2.0,81,0.00,,,0.00,Wunderground v.1.15,2013-01-18 14:59:00,
2013-01-18 10:03:00,31.4,25.3,30.57,North,355,0.0,4.0,78,0.00,,,0.00,Wunderground v.1.15,2013-01-18 15:03:00,
2013-01-18 10:04:00,31.5,25.4,30.57,North,355,1.0,4.0,78,0.00,,,0.00,Wunderground v.1.15,2013-01-18 15:04:00,
2013-01-18 10:08:00,32.4,25.7,30.57,North,355,0.0,4.0,76,0.00,,,0.00,Wunderground v.1.15,2013-01-18 15:08:00,
2013-01-18 10:09:00,32.5,25.5,30.57,North,355,0.0,4.0,75,0.00,,,0.00,Wunderground v.1.15,2013-01-18 15:09:00,
2013-01-18 10:10:00,32.5,25.5,30.57,North,355,0.0,4.0,75,0.00,,,0.00,Wunderground v.1.15,2013-01-18 15:10:00,
2013-01-18 10:13:00,32.9,24.9,30.57,North,355,0.0,3.0,72,0.00,,,0.00,Wunderground v.1.15,2013-01-18 15:13:00,
2013-01-18 10:14:00,33.0,25.0,30.58,North,7,2.0,4.0,72,0.00,,,0.00,Wunderground v.1.15,2013-01-18 15:14:00,
2013-01-18 10:15:00,33.0,25.0,30.57,North,7,2.0,4.0,72,0.00,,,0.00,Wunderground v.1.15,2013-01-18 15:15:00,
2013-01-18 10:18:00,33.3,24.9,30.57,North,11,0.0,6.0,71,0.00,,,0.00,Wunderground v.1.15,2013-01-18 15:18:00,
2013-01-18 10:19:00,33.4,25.0,30.57,NNE,15,0.0,6.0,71,0.00,,,0.00,Wunderground v.1.15,2013-01-18 15:19:00,
2013-01-18 10:20:00,33.4,25.0,30.57,NNE,15,0.0,6.0,71,0.00,,,0.00,Wunderground v.1.15,2013-01-18 15:20:00,
2013-01-18 10:23:00,33.8,25.4,30.57,NNE,16,2.0,3.0,71,0.00,,,0.00,Wunderground v.1.15,2013-01-18 15:23:00,
2013-01-18 10:24:00,33.8,25.0,30.57,NNE,16,0.0,3.0,70,0.00,,,0.00,Wunderground v.1.15,2013-01-18 15:24:00,
2013-01-18 10:25:00,34.0,25.6,30.57,NNE,16,0.0,3.0,71,0.00,,,0.00,Wunderground v.1.15,2013-01-18 15:25:00,
2013-01-18 10:28:00,34.4,25.3,30.57,NNE,24,0.0,4.0,69,0.00,,,0.00,Wunderground v.1.15,2013-01-18 15:28:00,
2013-01-18 10:29:00,34.4,25.3,30.57,NNE,24,0.0,4.0,69,0.00,,,0.00,Wunderground v.1.15,2013-01-18 15:29:00,
2013-01-18 10:30:00,34.6,25.5,30.57,NNE,24,2.0,4.0,69,0.00,,,0.00,Wunderground v.1.15,2013-01-18 15:30:00,
2013-01-18 10:34:00,34.6,24.0,30.57,East,100,7.0,7.0,65,0.00,,,0.00,Wunderground v.1.15,2013-01-18 15:34:00,
2013-01-18 10:35:00,34.6,23.7,30.57,East,100,7.0,7.0,64,0.00,,,0.00,Wunderground v.1.15,2013-01-18 15:35:00,
2013-01-18 10:39:00,34.1,23.6,30.57,ESE,108,2.0,7.0,65,0.00,,,0.00,Wunderground v.1.15,2013-01-18 15:39:00,
2013-01-18 10:40:00,33.9,23.4,30.57,ESE,107,3.0,7.0,65,0.00,,,0.00,Wunderground v.1.15,2013-01-18 15:40:00,
2013-01-18 10:44:00,33.5,23.0,30.57,ESE,112,5.0,9.0,65,0.00,,,0.00,Wunderground v.1.15,2013-01-18 15:44:00,
2013-01-18 10:45:00,33.4,22.5,30.57,ESE,113,5.0,9.0,64,0.00,,,0.00,Wunderground v.1.15,2013-01-18 15:45:00,
2013-01-18 10:49:00,33.0,22.1,30.57,ESE,113,1.0,9.0,64,0.00,,,0.00,Wunderground v.1.15,2013-01-18 15:49:00,
2013-01-18 10:50:00,33.0,22.1,30.57,ESE,113,2.0,4.0,64,0.00,,,0.00,Wunderground v.1.15,2013-01-18 15:50:00,
2013-01-18 10:51:00,33.0,22.5,30.57,ESE,113,2.0,4.0,65,0.00,,,0.00,Wunderground v.1.15,2013-01-18 15:51:00,
2013-01-18 10:54:00,33.2,22.3,30.57,ESE,119,2.0,6.0,64,0.00,,,0.00,Wunderground v.1.15,2013-01-18 15:54:00,
2013-01-18 10:55:00,33.2,22.3,30.57,ESE,119,4.0,6.0,64,0.00,,,0.00,Wunderground v.1.15,2013-01-18 15:55:00,
2013-01-18 10:56:00,33.3,22.4,30.58,ESE,119,5.0,6.0,64,0.00,,,0.00,Wunderground v.1.15,2013-01-18 15:56:00,
2013-01-18 10:59:00,33.3,22.1,30.58,ESE,119,2.0,6.0,63,0.00,,,0.00,Wunderground v.1.15,2013-01-18 15:59:00,
2013-01-18 11:00:00,33.3,22.4,30.58,ESE,119,0.0,3.0,64,0.00,,,0.00,Wunderground v.1.15,2013-01-18 16:00:00,
2013-01-18 11:01:00,33.4,22.5,30.58,ESE,119,0.0,3.0,64,0.00,,,0.00,Wunderground v.1.15,2013-01-18 16:01:00,
2013-01-18 11:04:00,33.4,22.1,30.58,ESE,119,2.0,3.0,63,0.00,,,0.00,Wunderground v.1.15,2013-01-18 16:04:00,
2013-01-18 11:05:00,33.3,22.1,30.58,ESE,119,0.0,3.0,63,0.00,,,0.00,Wunderground v.1.15,2013-01-18 16:05:00,
2013-01-18 11:06:00,33.3,22.1,30.58,ESE,119,0.0,3.0,63,0.00,,,0.00,Wunderground v.1.15,2013-01-18 16:06:00,
2013-01-18 11:09:00,33.1,22.2,30.58,ESE,119,0.0,3.0,64,0.00,,,0.00,Wunderground v.1.15,2013-01-18 16:09:00,
2013-01-18 11:10:00,33.0,22.5,30.58,ESE,119,0.0,0.0,65,0.00,,,0.00,Wunderground v.1.15,2013-01-18 16:10:00,
2013-01-18 11:11:00,33.0,22.5,30.58,ESE,119,0.0,0.0,65,0.00,,,0.00,Wunderground v.1.15,2013-01-18 16:11:00,
2013-01-18 11:15:00,33.5,22.2,30.58,SSE,158,2.0,6.0,63,0.00,,,0.00,Wunderground v.1.15,2013-01-18 16:15:00,
2013-01-18 11:16:00,33.7,22.8,30.58,SSE,159,3.0,6.0,64,0.00,,,0.00,Wunderground v.1.15,2013-01-18 16:16:00,
2013-01-18 11:20:00,34.3,23.4,30.58,SSE,159,4.0,6.0,64,0.00,,,0.00,Wunderground v.1.15,2013-01-18 16:20:00,
2013-01-18 11:21:00,34.4,22.7,30.58,SSE,161,3.0,5.0,62,0.00,,,0.00,Wunderground v.1.15,2013-01-18 16:21:00,
2013-01-18 11:25:00,35.0,23.3,30.58,South,175,2.0,7.0,62,0.00,,,0.00,Wunderground v.1.15,2013-01-18 16:25:00,
2013-01-18 11:26:00,35.2,23.5,30.58,South,175,3.0,7.0,62,0.00,,,0.00,Wunderground v.1.15,2013-01-18 16:26:00,
2013-01-18 11:27:00,35.3,23.6,30.58,South,169,6.0,7.0,62,0.00,,,0.00,Wunderground v.1.15,2013-01-18 16:27:00,
2013-01-18 11:30:00,35.7,23.9,30.58,South,186,6.0,6.0,62,0.00,,,0.00,Wunderground v.1.15,2013-01-18 16:30:00,
2013-01-18 11:31:00,35.9,23.7,30.58,South,186,5.0,7.0,61,0.00,,,0.00,Wunderground v.1.15,2013-01-18 16:31:00,
2013-01-18 11:32:00,35.9,24.1,30.58,South,189,5.0,7.0,62,0.00,,,0.00,Wunderground v.1.15,2013-01-18 16:32:00,
2013-01-18 11:35:00,36.1,24.7,30.57,South,188,4.0,7.0,63,0.00,,,0.00,Wunderground v.1.15,2013-01-18 16:35:00,
2013-01-18 11:36:00,36.2,24.4,30.57,South,188,0.0,7.0,62,0.00,,,0.00,Wunderground v.1.15,2013-01-18 16:36:00,
2013-01-18 11:37:00,36.2,24.8,30.57,South,188,5.0,7.0,63,0.00,,,0.00,Wunderground v.1.15,2013-01-18 16:37:00,
2013-01-18 11:41:00,36.6,24.8,30.57,South,188,3.0,3.0,62,0.00,,,0.00,Wunderground v.1.15,2013-01-18 16:41:00,
2013-01-18 11:42:00,36.9,24.7,30.57,South,182,4.0,9.0,61,0.00,,,0.00,Wunderground v.1.15,2013-01-18 16:42:00,
2013-01-18 11:46:00,37.1,25.3,30.57,South,188,6.0,9.0,62,0.00,,,0.00,Wunderground v.1.15,2013-01-18 16:46:00,
2013-01-18 11:47:00,37.1,24.9,30.56,SSW,195,3.0,9.0,61,0.00,,,0.00,Wunderground v.1.15,2013-01-18 16:47:00,
2013-01-18 11:51:00,37.1,24.1,30.56,SSW,209,3.0,4.0,59,0.00,,,0.00,Wunderground v.1.15,2013-01-18 16:51:00,
2013-01-18 11:52:00,37.0,24.4,30.56,South,182,6.0,9.0,60,0.00,,,0.00,Wunderground v.1.15,2013-01-18 16:52:00,
2013-01-18 11:56:00,37.1,24.9,30.56,South,181,1.0,9.0,61,0.00,,,0.00,Wunderground v.1.15,2013-01-18 16:56:00,
2013-01-18 11:57:00,37.2,25.4,30.56,SSW,200,5.0,9.0,62,0.00,,,0.00,Wunderground v.1.15,2013-01-18 16:57:00,
2013-01-18 12:01:00,37.2,24.6,30.55,SE,145,2.0,7.0,60,0.00,,,0.00,Wunderground v.1.15,2013-01-18 17:01:00,
2013-01-18 12:03:00,37.3,24.7,30.55,South,169,6.0,7.0,60,0.00,,,0.00,Wunderground v.1.15,2013-01-18 17:03:00,
2013-01-18 12:06:00,37.3,24.3,30.55,SSW,195,3.0,11.0,59,0.00,,,0.00,Wunderground v.1.15,2013-01-18 17:06:00,
2013-01-18 12:08:00,37.3,24.3,30.55,South,190,11.0,11.0,59,0.00,,,0.00,Wunderground v.1.15,2013-01-18 17:08:00,
2013-01-18 12:09:00,37.3,24.3,30.55,SSW,210,6.0,11.0,59,0.00,,,0.00,Wunderground v.1.15,2013-01-18 17:09:00,
2013-01-18 12:11:00,37.2,24.2,30.55,SW,222,4.0,10.0,59,0.00,,,0.00,Wunderground v.1.15,2013-01-18 17:11:00,
2013-01-18 12:13:00,37.0,24.8,30.54,SSW,209,6.0,10.0,61,0.00,,,0.00,Wunderground v.1.15,2013-01-18 17:13:00,
2013-01-18 12:14:00,37.0,24.4,30.54,SW,226,5.0,11.0,60,0.00,,,0.00,Wunderground v.1.15,2013-01-18 17:14:00,
2013-01-18 12:16:00,37.0,24.8,30.54,SSW,212,5.0,11.0,61,0.00,,,0.00,Wunderground v.1.15,2013-01-18 17:16:00,
2013-01-18 12:18:00,37.0,24.4,30.54,SSW,195,2.0,11.0,60,0.00,,,0.00,Wunderground v.1.15,2013-01-18 17:18:00,
2013-01-18 12:19:00,37.0,24.4,30.54,SW,226,6.0,11.0,60,0.00,,,0.00,Wunderground v.1.15,2013-01-18 17:19:00,
2013-01-18 12:22:00,36.9,23.9,30.54,SW,230,4.0,7.0,59,0.00,,,0.00,Wunderground v.1.15,2013-01-18 17:22:00,
2013-01-18 12:23:00,36.9,24.3,30.54,SW,230,3.0,7.0,60,0.00,,,0.00,Wunderground v.1.15,2013-01-18 17:23:00,
2013-01-18 12:24:00,36.9,24.3,30.54,West,259,6.0,10.0,60,0.00,,,0.00,Wunderground v.1.15,2013-01-18 17:24:00,
2013-01-18 12:28:00,36.9,24.7,30.53,SSW,195,5.0,10.0,61,0.00,,,0.00,Wunderground v.1.15,2013-01-18 17:28:00,
2013-01-18 12:29:00,37.0,24.8,30.53,SW,221,10.0,12.0,61,0.00,,,0.00,Wunderground v.1.15,2013-01-18 17:29:00,
2013-01-18 12:33:00,37.1,24.9,30.53,SW,234,5.0,9.0,61,0.00,,,0.01,Wunderground v.1.15,2013-01-18 17:33:00,
2013-01-18 12:34:00,37.1,24.5,30.53,SW,217,10.0,11.0,60,0.00,,,0.01,Wunderground v.1.15,2013-01-18 17:34:00,
2013-01-18 12:38:00,37.1,24.9,30.53,SW,233,3.0,11.0,61,0.00,,,0.01,Wunderground v.1.15,2013-01-18 17:38:00,
2013-01-18 12:39:00,37.1,24.9,30.53,SW,233,3.0,11.0,61,0.00,,,0.01,Wunderground v.1.15,2013-01-18 17:39:00,
2013-01-18 12:43:00,37.1,24.9,30.53,WSW,253,3.0,12.0,61,0.00,,,0.01,Wunderground v.1.15,2013-01-18 17:43:00,
2013-01-18 12:44:00,37.1,24.5,30.53,WSW,238,3.0,12.0,60,0.00,,,0.01,Wunderground v.1.15,2013-01-18 17:44:00,
2013-01-18 12:45:00,37.1,24.9,30.53,SW,233,5.0,12.0,61,0.00,,,0.01,Wunderground v.1.15,2013-01-18 17:45:00,
2013-01-18 12:48:00,37.3,25.1,30.52,SW,227,3.0,12.0,61,0.00,,,0.01,Wunderground v.1.15,2013-01-18 17:48:00,
2013-01-18 12:49:00,37.4,25.2,30.52,SW,227,2.0,12.0,61,0.00,,,0.01,Wunderground v.1.15,2013-01-18 17:49:00,
2013-01-18 12:50:00,37.5,25.3,30.52,SW,217,4.0,5.0,61,0.00,,,0.01,Wunderground v.1.15,2013-01-18 17:50:00,
2013-01-18 12:53:00,37.9,25.6,30.52,SW,217,6.0,7.0,61,0.00,,,0.01,Wunderground v.1.15,2013-01-18 17:53:00,
2013-01-18 12:54:00,38.0,25.7,30.52,SW,217,3.0,7.0,61,0.00,,,0.01,Wunderground v.1.15,2013-01-18 17:54:00,
2013-01-18 12:55:00,38.2,25.9,30.52,WSW,240,2.0,7.0,61,0.00,,,0.01,Wunderground v.1.15,2013-01-18 17:55:00,
2013-01-18 12:58:00,38.4,25.7,30.52,SW,215,6.0,11.0,60,0.00,,,0.01,Wunderground v.1.15,2013-01-18 17:58:00,
2013-01-18 12:59:00,38.4,25.7,30.51,SW,214,5.0,11.0,60,0.00,,,0.01,Wunderground v.1.15,2013-01-18 17:59:00,
2013-01-18 13:00:00,38.6,25.9,30.52,WSW,253,5.0,6.0,60,0.00,,,0.01,Wunderground v.1.15,2013-01-18 18:00:00,
2013-01-18 13:03:00,38.4,25.7,30.51,SW,234,10.0,10.0,60,0.00,,,0.01,Wunderground v.1.15,2013-01-18 18:03:00,
2013-01-18 13:04:00,38.4,25.7,30.51,SW,219,6.0,11.0,60,0.00,,,0.01,Wunderground v.1.15,2013-01-18 18:04:00,
2013-01-18 13:05:00,38.4,25.7,30.51,SW,229,10.0,11.0,60,0.00,,,0.01,Wunderground v.1.15,2013-01-18 18:05:00,
2013-01-18 13:08:00,38.6,25.9,30.51,SW,223,5.0,12.0,60,0.00,,,0.01,Wunderground v.1.15,2013-01-18 18:08:00,
2013-01-18 13:09:00,38.5,25.4,30.51,SW,228,6.0,12.0,59,0.00,,,0.01,Wunderground v.1.15,2013-01-18 18:09:00,
2013-01-18 13:10:00,38.6,25.5,30.51,SW,226,7.0,7.0,59,0.00,,,0.01,Wunderground v.1.15,2013-01-18 18:10:00,
2013-01-18 13:14:00,38.7,25.6,30.50,SSW,205,4.0,14.0,59,0.00,,,0.01,Wunderground v.1.15,2013-01-18 18:14:00,
2013-01-18 13:15:00,38.8,26.1,30.50,SW,215,4.0,14.0,60,0.00,,,0.01,Wunderground v.1.15,2013-01-18 18:15:00,
2013-01-18 13:19:00,39.0,25.9,30.50,WSW,239,3.0,14.0,59,0.00,,,0.01,Wunderground v.1.15,2013-01-18 18:19:00,
2013-01-18 13:21:00,39.1,26.0,30.50,WSW,237,9.0,10.0,59,0.00,,,0.01,Wunderground v.1.15,2013-01-18 18:21:00,
2013-01-18 13:24:00,39.5,26.8,30.50,SSW,211,1.0,10.0,60,0.00,,,0.01,Wunderground v.1.15,2013-01-18 18:24:00,
2013-01-18 13:26:00,39.7,26.9,30.50,SW,226,7.0,10.0,60,0.00,,,0.01,Wunderground v.1.15,2013-01-18 18:26:00,
2013-01-18 13:30:00,39.9,26.3,30.49,WSW,238,1.0,5.0,58,0.00,,,0.01,Wunderground v.1.15,2013-01-18 18:30:00,
2013-01-18 13:31:00,40.0,26.4,30.49,SW,219,4.0,5.0,58,0.00,,,0.01,Wunderground v.1.15,2013-01-18 18:31:00,
2013-01-18 13:35:00,39.9,26.7,30.49,SW,222,4.0,10.0,59,0.00,,,0.01,Wunderground v.1.15,2013-01-18 18:35:00,
2013-01-18 13:36:00,40.0,26.8,30.49,SW,224,1.0,10.0,59,0.00,,,0.01,Wunderground v.1.15,2013-01-18 18:36:00,
2013-01-18 13:40:00,40.5,26.9,30.49,WSW,238,4.0,4.0,58,0.00,,,0.01,Wunderground v.1.15,2013-01-18 18:40:00,
2013-01-18 13:41:00,40.5,26.9,30.49,WSW,240,4.0,6.0,58,0.00,,,0.01,Wunderground v.1.15,2013-01-18 18:41:00,
2013-01-18 13:42:00,40.5,27.3,30.49,WSW,237,3.0,6.0,59,0.00,,,0.01,Wunderground v.1.15,2013-01-18 18:42:00,
2013-01-18 13:45:00,40.8,27.6,30.49,WSW,238,6.0,7.0,59,0.00,,,0.01,Wunderground v.1.15,2013-01-18 18:45:00,
2013-01-18 13:46:00,40.7,27.1,30.48,SW,236,6.0,10.0,58,0.00,,,0.01,Wunderground v.1.15,2013-01-18 18:46:00,
2013-01-18 13:47:00,40.7,27.1,30.48,SW,236,4.0,10.0,58,0.00,,,0.01,Wunderground v.1.15,2013-01-18 18:47:00,
2013-01-18 13:51:00,40.7,27.1,30.49,WSW,246,10.0,12.0,58,0.00,,,0.01,Wunderground v.1.15,2013-01-18 18:51:00,
2013-01-18 13:52:00,40.6,26.5,30.48,West,269,9.0,14.0,57,0.00,,,0.01,Wunderground v.1.15,2013-01-18 18:52:00,
2013-01-18 13:56:00,40.2,27.0,30.48,WSW,249,6.0,14.0,59,0.00,,,0.01,Wunderground v.1.15,2013-01-18 18:56:00,
2013-01-18 13:57:00,40.2,27.0,30.48,WSW,240,4.0,14.0,59,0.00,,,0.01,Wunderground v.1.15,2013-01-18 18:57:00,
2013-01-18 14:01:00,40.6,27.4,30.48,SW,219,7.0,11.0,59,0.00,,,0.01,Wunderground v.1.15,2013-01-18 19:01:00,
2013-01-18 14:02:00,40.6,27.4,30.49,SW,219,5.0,11.0,59,0.00,,,0.01,Wunderground v.1.15,2013-01-18 19:02:00,
2013-01-18 14:06:00,40.7,27.5,30.49,WSW,238,13.0,14.0,59,0.00,,,0.01,Wunderground v.1.15,2013-01-18 19:06:00,
2013-01-18 14:07:00,40.8,27.6,30.49,SW,222,5.0,14.0,59,0.00,,,0.01,Wunderground v.1.15,2013-01-18 19:07:00,
2013-01-18 14:12:00,41.1,27.4,30.48,SW,233,7.0,7.0,58,0.00,,,0.01,Wunderground v.1.15,2013-01-18 19:12:00,
2013-01-18 14:17:00,41.6,28.3,30.48,WSW,237,4.0,7.0,59,0.00,,,0.01,Wunderground v.1.15,2013-01-18 19:17:00,
2013-01-18 14:18:00,41.8,28.1,30.48,SW,230,6.0,9.0,58,0.00,,,0.01,Wunderground v.1.15,2013-01-18 19:18:00,
2013-01-18 14:22:00,42.6,28.4,30.48,SW,228,7.0,7.0,57,0.00,,,0.01,Wunderground v.1.15,2013-01-18 19:22:00,
2013-01-18 14:23:00,42.7,28.5,30.48,SW,224,5.0,12.0,57,0.00,,,0.01,Wunderground v.1.15,2013-01-18 19:23:00,
2013-01-18 14:27:00,42.6,28.8,30.48,SW,222,6.0,12.0,58,0.00,,,0.01,Wunderground v.1.15,2013-01-18 19:27:00,
2013-01-18 14:28:00,42.6,28.4,30.48,SSW,205,5.0,12.0,57,0.00,,,0.01,Wunderground v.1.15,2013-01-18 19:28:00,
2013-01-18 14:32:00,42.7,28.5,30.48,SW,232,7.0,8.0,57,0.00,,,0.01,Wunderground v.1.15,2013-01-18 19:32:00,
2013-01-18 14:33:00,42.7,28.5,30.48,SW,228,5.0,8.0,57,0.00,,,0.01,Wunderground v.1.15,2013-01-18 19:33:00,
2013-01-18 14:37:00,42.8,28.6,30.48,SW,226,4.0,11.0,57,0.00,,,0.01,Wunderground v.1.15,2013-01-18 19:37:00,
2013-01-18 14:38:00,42.8,28.6,30.47,SW,227,2.0,11.0,57,0.00,,,0.01,Wunderground v.1.15,2013-01-18 19:38:00,
2013-01-18 14:42:00,43.0,28.8,30.47,SW,218,7.0,10.0,57,0.00,,,0.01,Wunderground v.1.15,2013-01-18 19:42:00,
2013-01-18 14:43:00,43.1,28.9,30.47,SW,219,1.0,10.0,57,0.00,,,0.01,Wunderground v.1.15,2013-01-18 19:43:00,
2013-01-18 14:47:00,43.3,28.6,30.47,SSW,210,2.0,10.0,56,0.00,,,0.01,Wunderground v.1.15,2013-01-18 19:47:00,
2013-01-18 14:48:00,43.4,28.7,30.47,SW,215,5.0,10.0,56,0.00,,,0.01,Wunderground v.1.15,2013-01-18 19:48:00,
2013-01-18 14:52:00,43.5,28.8,30.47,SSW,200,3.0,10.0,56,0.00,,,0.01,Wunderground v.1.15,2013-01-18 19:52:00,
2013-01-18 14:53:00,43.5,28.8,30.47,SSW,200,3.0,10.0,56,0.00,,,0.01,Wunderground v.1.15,2013-01-18 19:53:00,
2013-01-18 14:58:00,43.6,29.4,30.47,South,177,10.0,12.0,57,0.00,,,0.01,Wunderground v.1.15,2013-01-18 19:58:00,
2013-01-18 14:59:00,43.8,29.1,30.46,SSW,200,5.0,12.0,56,0.00,,,0.01,Wunderground v.1.15,2013-01-18 19:59:00,
2013-01-18 15:03:00,44.2,29.0,30.46,SSW,200,3.0,13.0,55,0.00,,,0.01,Wunderground v.1.15,2013-01-18 20:03:00,
2013-01-18 15:04:00,44.2,29.0,30.46,SSW,205,5.0,13.0,55,0.00,,,0.01,Wunderground v.1.15,2013-01-18 20:04:00,
2013-01-18 15:09:00,44.9,29.7,30.46,South,182,9.0,14.0,55,0.00,,,0.01,Wunderground v.1.15,2013-01-18 20:09:00,
2013-01-18 15:14:00,44.6,29.0,30.45,SW,224,10.0,11.0,54,0.00,,,0.01,Wunderground v.1.15,2013-01-18 20:14:00,
2013-01-18 15:19:00,45.0,29.8,30.45,SW,227,6.0,11.0,55,0.00,,,0.01,Wunderground v.1.15,2013-01-18 20:19:00,
2013-01-18 15:24:00,45.2,30.0,30.45,SSW,195,6.0,11.0,55,0.00,,,0.01,Wunderground v.1.15,2013-01-18 20:24:00,
2013-01-18 15:29:00,45.2,29.1,30.45,SW,215,5.0,15.0,53,0.00,,,0.01,Wunderground v.1.15,2013-01-18 20:29:00,
2013-01-18 15:34:00,45.4,29.7,30.45,SSW,205,3.0,7.0,54,0.00,,,0.01,Wunderground v.1.15,2013-01-18 20:34:00,
2013-01-18 15:39:00,45.7,29.1,30.44,SSE,153,9.0,11.0,52,0.00,,,0.01,Wunderground v.1.15,2013-01-18 20:39:00,
2013-01-18 15:44:00,45.4,28.3,30.44,SSW,195,10.0,12.0,51,0.00,,,0.01,Wunderground v.1.15,2013-01-18 20:44:00,
2013-01-18 15:49:00,45.0,28.9,30.44,SW,217,4.0,15.0,53,0.00,,,0.01,Wunderground v.1.15,2013-01-18 20:49:00,
2013-01-18 15:50:00,45.0,28.9,30.44,SW,232,7.0,15.0,53,0.00,,,0.01,Wunderground v.1.15,2013-01-18 20:50:00,
2013-01-18 15:54:00,45.2,28.6,30.44,WSW,249,1.0,11.0,52,0.00,,,0.01,Wunderground v.1.15,2013-01-18 20:54:00,
2013-01-18 15:55:00,45.2,28.6,30.44,SSW,212,9.0,11.0,52,0.00,,,0.01,Wunderground v.1.15,2013-01-18 20:55:00,
2013-01-18 16:00:00,45.4,28.3,30.44,WSW,243,2.0,6.0,51,0.00,,,0.01,Wunderground v.1.15,2013-01-18 21:00:00,
2013-01-18 16:05:00,45.7,28.6,30.44,SW,233,5.0,12.0,51,0.00,,,0.01,Wunderground v.1.15,2013-01-18 21:05:00,
2013-01-18 16:10:00,46.1,29.4,30.43,SW,219,6.0,8.0,52,0.00,,,0.01,Wunderground v.1.15,2013-01-18 21:10:00,
2013-01-18 16:15:00,46.2,28.6,30.43,SSW,209,6.0,14.0,50,0.00,,,0.01,Wunderground v.1.15,2013-01-18 21:15:00,
2013-01-18 16:20:00,46.0,28.9,30.43,SW,222,5.0,7.0,51,0.00,,,0.01,Wunderground v.1.15,2013-01-18 21:20:00,
2013-01-18 16:21:00,46.0,28.9,30.43,SSW,209,7.0,12.0,51,0.00,,,0.01,Wunderground v.1.15,2013-01-18 21:21:00,
2013-01-18 16:26:00,46.0,28.4,30.43,SW,220,6.0,12.0,50,0.00,,,0.01,Wunderground v.1.15,2013-01-18 21:26:00,
2013-01-18 16:31:00,46.0,28.4,30.43,SW,226,5.0,7.0,50,0.00,,,0.01,Wunderground v.1.15,2013-01-18 21:31:00,
2013-01-18 16:36:00,46.0,28.4,30.42,SSW,200,4.0,10.0,50,0.00,,,0.01,Wunderground v.1.15,2013-01-18 21:36:00,
2013-01-18 16:37:00,46.0,28.9,30.42,SW,215,5.0,10.0,51,0.00,,,0.01,Wunderground v.1.15,2013-01-18 21:37:00,
2013-01-18 16:41:00,46.2,29.1,30.42,SW,219,7.0,10.0,51,0.00,,,0.01,Wunderground v.1.15,2013-01-18 21:41:00,
2013-01-18 16:42:00,46.2,29.1,30.42,SW,221,6.0,10.0,51,0.00,,,0.01,Wunderground v.1.15,2013-01-18 21:42:00,
2013-01-18 16:46:00,46.3,29.1,30.42,SSW,200,4.0,10.0,51,0.00,,,0.01,Wunderground v.1.15,2013-01-18 21:46:00,
2013-01-18 16:47:00,46.3,28.7,30.42,SSW,205,1.0,10.0,50,0.00,,,0.01,Wunderground v.1.15,2013-01-18 21:47:00,
2013-01-18 16:51:00,46.6,29.4,30.42,SSW,205,5.0,6.0,51,0.00,,,0.01,Wunderground v.1.15,2013-01-18 21:51:00,
2013-01-18 16:52:00,46.6,28.9,30.42,SSW,211,5.0,10.0,50,0.00,,,0.01,Wunderground v.1.15,2013-01-18 21:52:00,
2013-01-18 16:56:00,46.6,28.9,30.42,SW,227,4.0,11.0,50,0.00,,,0.01,Wunderground v.1.15,2013-01-18 21:56:00,
2013-01-18 16:57:00,46.5,29.3,30.42,SSW,211,8.0,11.0,51,0.00,,,0.01,Wunderground v.1.15,2013-01-18 21:57:00,
2013-01-18 17:01:00,46.2,29.1,30.42,SSW,209,8.0,8.0,51,0.00,,,0.01,Wunderground v.1.15,2013-01-18 22:01:00,
2013-01-18 17:02:00,46.2,29.1,30.42,SSW,205,3.0,8.0,51,0.00,,,0.01,Wunderground v.1.15,2013-01-18 22:02:00,
2013-01-18 17:06:00,45.7,28.6,30.42,SSW,210,7.0,11.0,51,0.00,,,0.01,Wunderground v.1.15,2013-01-18 22:06:00,
2013-01-18 17:07:00,45.7,28.6,30.42,SSW,200,6.0,11.0,51,0.00,,,0.01,Wunderground v.1.15,2013-01-18 22:07:00,
2013-01-18 17:11:00,45.5,28.9,30.42,SSW,205,6.0,8.0,52,0.00,,,0.01,Wunderground v.1.15,2013-01-18 22:11:00,
2013-01-18 17:12:00,45.5,28.9,30.42,SSW,200,4.0,8.0,52,0.00,,,0.01,Wunderground v.1.15,2013-01-18 22:12:00,
2013-01-18 17:13:00,45.5,28.9,30.42,SSW,200,1.0,8.0,52,0.00,,,0.01,Wunderground v.1.15,2013-01-18 22:13:00,
2013-01-18 17:17:00,45.3,28.7,30.41,South,188,8.0,8.0,52,0.00,,,0.01,Wunderground v.1.15,2013-01-18 22:17:00,
2013-01-18 17:18:00,45.3,28.7,30.42,SSW,200,3.0,10.0,52,0.00,,,0.01,Wunderground v.1.15,2013-01-18 22:18:00,
2013-01-18 17:22:00,45.1,28.5,30.41,SSW,205,6.0,7.0,52,0.00,,,0.01,Wunderground v.1.15,2013-01-18 22:22:00,
2013-01-18 17:23:00,45.0,28.4,30.41,SSW,205,6.0,9.0,52,0.00,,,0.01,Wunderground v.1.15,2013-01-18 22:23:00,
2013-01-18 17:27:00,44.8,28.2,30.41,SSW,200,9.0,11.0,52,0.00,,,0.01,Wunderground v.1.15,2013-01-18 22:27:00,
2013-01-18 17:28:00,44.6,28.0,30.41,South,178,6.0,12.0,52,0.00,,,0.01,Wunderground v.1.15,2013-01-18 22:28:00,
2013-01-18 17:32:00,44.2,28.1,30.41,SSW,205,5.0,6.0,53,0.00,,,0.01,Wunderground v.1.15,2013-01-18 22:32:00,
2013-01-18 17:33:00,44.1,28.0,30.41,SSW,200,2.0,7.0,53,0.00,,,0.01,Wunderground v.1.15,2013-01-18 22:33:00,
2013-01-18 17:37:00,43.6,28.0,30.40,SSW,200,7.0,7.0,54,0.00,,,0.01,Wunderground v.1.15,2013-01-18 22:37:00,
2013-01-18 17:38:00,43.4,27.8,30.40,SSW,195,5.0,7.0,54,0.00,,,0.01,Wunderground v.1.15,2013-01-18 22:38:00,
2013-01-18 17:39:00,43.4,27.8,30.40,SSW,195,7.0,7.0,54,0.00,,,0.01,Wunderground v.1.15,2013-01-18 22:39:00,
2013-01-18 17:42:00,42.8,27.7,30.40,SSW,195,4.0,5.0,55,0.00,,,0.01,Wunderground v.1.15,2013-01-18 22:42:00,
2013-01-18 17:44:00,42.6,28.0,30.40,SSW,195,7.0,7.0,56,0.00,,,0.01,Wunderground v.1.15,2013-01-18 22:44:00,
2013-01-18 17:47:00,42.1,27.9,30.40,South,191,5.0,8.0,57,0.00,,,0.01,Wunderground v.1.15,2013-01-18 22:47:00,
2013-01-18 17:49:00,41.9,27.8,30.40,South,191,0.0,8.0,57,0.00,,,0.01,Wunderground v.1.15,2013-01-18 22:49:00,
2013-01-18 17:52:00,41.5,27.8,30.40,SSW,200,6.0,10.0,58,0.00,,,0.01,Wunderground v.1.15,2013-01-18 22:52:00,
2013-01-18 17:54:00,41.3,27.6,30.40,SSW,200,2.0,10.0,58,0.00,,,0.01,Wunderground v.1.15,2013-01-18 22:54:00,
2013-01-18 17:57:00,40.9,27.7,30.41,SSW,195,4.0,11.0,59,0.00,,,0.01,Wunderground v.1.15,2013-01-18 22:57:00,
2013-01-18 17:58:00,40.9,27.7,30.40,SSW,195,5.0,11.0,59,0.00,,,0.01,Wunderground v.1.15,2013-01-18 22:58:00,
2013-01-18 17:59:00,40.8,27.6,30.41,SSW,195,7.0,11.0,59,0.00,,,0.01,Wunderground v.1.15,2013-01-18 22:59:00,
2013-01-18 18:03:00,40.5,27.7,30.40,SSW,200,3.0,7.0,60,0.00,,,0.01,Wunderground v.1.15,2013-01-18 23:03:00,
2013-01-18 18:04:00,40.4,27.6,30.40,SSW,200,3.0,7.0,60,0.00,,,0.01,Wunderground v.1.15,2013-01-18 23:04:00,
2013-01-18 18:08:00,40.1,27.3,30.40,SSW,200,3.0,7.0,60,0.00,,,0.01,Wunderground v.1.15,2013-01-18 23:08:00,
2013-01-18 18:09:00,40.0,27.6,30.40,SSW,200,3.0,7.0,61,0.00,,,0.01,Wunderground v.1.15,2013-01-18 23:09:00,
2013-01-18 18:13:00,39.8,27.4,30.40,SSW,200,4.0,5.0,61,0.00,,,0.01,Wunderground v.1.15,2013-01-18 23:13:00,
2013-01-18 18:15:00,39.7,27.3,30.40,SSW,200,6.0,6.0,61,0.00,,,0.01,Wunderground v.1.15,2013-01-18 23:15:00,
2013-01-18 18:18:00,39.5,27.5,30.40,SSW,195,5.0,6.0,62,0.00,,,0.01,Wunderground v.1.15,2013-01-18 23:18:00,
2013-01-18 18:20:00,39.3,27.4,30.40,SSW,195,6.0,6.0,62,0.00,,,0.01,Wunderground v.1.15,2013-01-18 23:20:00,
2013-01-18 18:23:00,39.2,27.3,30.40,SSW,195,5.0,7.0,62,0.00,,,0.01,Wunderground v.1.15,2013-01-18 23:23:00,
2013-01-18 18:25:00,39.1,27.2,30.40,SSW,195,5.0,7.0,62,0.00,,,0.01,Wunderground v.1.15,2013-01-18 23:25:00,
2013-01-18 18:28:00,38.9,27.4,30.40,South,188,3.0,7.0,63,0.00,,,0.01,Wunderground v.1.15,2013-01-18 23:28:00,
2013-01-18 18:30:00,38.8,27.3,30.40,South,188,5.0,5.0,63,0.00,,,0.01,Wunderground v.1.15,2013-01-18 23:30:00,
2013-01-18 18:33:00,38.8,27.3,30.39,SSW,195,1.0,7.0,63,0.00,,,0.01,Wunderground v.1.15,2013-01-18 23:33:00,
2013-01-18 18:35:00,38.7,27.2,30.39,SSW,195,4.0,7.0,63,0.00,,,0.01,Wunderground v.1.15,2013-01-18 23:35:00,
2013-01-18 18:38:00,38.6,27.1,30.39,SSW,195,5.0,7.0,63,0.00,,,0.01,Wunderground v.1.15,2013-01-18 23:38:00,
2013-01-18 18:41:00,38.5,27.0,30.40,SSW,195,2.0,6.0,63,0.00,,,0.01,Wunderground v.1.15,2013-01-18 23:41:00,
2013-01-18 18:43:00,38.4,27.3,30.40,SSW,195,3.0,6.0,64,0.00,,,0.01,Wunderground v.1.15,2013-01-18 23:43:00,
2013-01-18 18:46:00,38.4,27.3,30.40,SSW,195,3.0,9.0,64,0.00,,,0.01,Wunderground v.1.15,2013-01-18 23:46:00,
2013-01-18 18:49:00,38.3,27.2,30.40,SSW,195,2.0,9.0,64,0.00,,,0.01,Wunderground v.1.15,2013-01-18 23:49:00,
2013-01-18 18:51:00,38.2,27.1,30.40,SSW,195,4.0,4.0,64,0.00,,,0.01,Wunderground v.1.15,2013-01-18 23:51:00,
2013-01-18 18:54:00,38.1,27.0,30.40,SSW,195,2.0,5.0,64,0.00,,,0.01,Wunderground v.1.15,2013-01-18 23:54:00,
2013-01-18 18:56:00,38.1,27.0,30.40,SSW,195,3.0,5.0,64,0.00,,,0.01,Wunderground v.1.15,2013-01-18 23:56:00,
2013-01-18 18:59:00,38.0,27.3,30.40,South,191,3.0,5.0,65,0.00,,,0.01,Wunderground v.1.15,2013-01-18 23:59:00,
2013-01-18 19:01:00,38.0,27.3,30.40,South,190,3.0,6.0,65,0.00,,,0.01,Wunderground v.1.15,2013-01-19 00:01:00,
2013-01-18 19:04:00,37.9,27.2,30.40,South,191,3.0,6.0,65,0.00,,,0.01,Wunderground v.1.15,2013-01-19 00:04:00,
2013-01-18 19:06:00,37.9,27.2,30.39,SSW,195,2.0,6.0,65,0.00,,,0.01,Wunderground v.1.15,2013-01-19 00:06:00,
2013-01-18 19:07:00,37.9,27.2,30.39,SSW,195,2.0,6.0,65,0.00,,,0.01,Wunderground v.1.15,2013-01-19 00:07:00,
2013-01-18 19:09:00,37.8,27.1,30.39,South,189,5.0,6.0,65,0.00,,,0.01,Wunderground v.1.15,2013-01-19 00:09:00,
2013-01-18 19:11:00,37.8,27.1,30.39,South,189,4.0,6.0,65,0.00,,,0.01,Wunderground v.1.15,2013-01-19 00:11:00,
2013-01-18 19:12:00,37.8,27.1,30.39,South,190,4.0,6.0,65,0.00,,,0.01,Wunderground v.1.15,2013-01-19 00:12:00,
2013-01-18 19:14:00,37.8,27.1,30.39,South,190,2.0,7.0,65,0.00,,,0.01,Wunderground v.1.15,2013-01-19 00:14:00,
2013-01-18 19:17:00,37.8,27.1,30.39,South,189,5.0,7.0,65,0.00,,,0.01,Wunderground v.1.15,2013-01-19 00:17:00,
2013-01-18 19:19:00,37.7,27.0,30.39,South,189,1.0,7.0,65,0.00,,,0.01,Wunderground v.1.15,2013-01-19 00:19:00,
2013-01-18 19:22:00,37.7,27.0,30.39,South,189,5.0,6.0,65,0.00,,,0.01,Wunderground v.1.15,2013-01-19 00:22:00,
2013-01-18 19:24:00,37.7,27.0,30.39,SSW,195,4.0,10.0,65,0.00,,,0.01,Wunderground v.1.15,2013-01-19 00:24:00,
2013-01-18 19:25:00,37.7,27.0,30.39,SSW,195,5.0,10.0,65,0.00,,,0.01,Wunderground v.1.15,2013-01-19 00:25:00,
2013-01-18 19:27:00,37.7,27.4,30.39,South,188,3.0,10.0,66,0.00,,,0.01,Wunderground v.1.15,2013-01-19 00:27:00,
2013-01-18 19:29:00,37.7,27.0,30.39,South,188,1.0,10.0,65,0.00,,,0.01,Wunderground v.1.15,2013-01-19 00:29:00,
2013-01-18 19:30:00,37.7,27.0,30.39,South,188,3.0,4.0,65,0.00,,,0.01,Wunderground v.1.15,2013-01-19 00:30:00,
2013-01-18 19:32:00,37.7,27.0,30.39,South,187,4.0,6.0,65,0.00,,,0.01,Wunderground v.1.15,2013-01-19 00:32:00,
2013-01-18 19:34:00,37.7,27.0,30.39,South,187,0.0,7.0,65,0.00,,,0.01,Wunderground v.1.15,2013-01-19 00:34:00,
2013-01-18 19:35:00,37.7,27.4,30.40,South,187,3.0,7.0,66,0.00,,,0.01,Wunderground v.1.15,2013-01-19 00:35:00,
2013-01-18 19:37:00,37.7,27.4,30.39,South,186,1.0,7.0,66,0.00,,,0.01,Wunderground v.1.15,2013-01-19 00:37:00,
2013-01-18 19:40:00,37.6,27.3,30.39,South,186,4.0,5.0,66,0.00,,,0.01,Wunderground v.1.15,2013-01-19 00:40:00,
2013-01-18 19:43:00,37.6,27.3,30.39,South,186,0.0,5.0,66,0.00,,,0.01,Wunderground v.1.15,2013-01-19 00:43:00,
2013-01-18 19:45:00,37.5,27.2,30.39,South,186,4.0,6.0,66,0.00,,,0.01,Wunderground v.1.15,2013-01-19 00:45:00,
2013-01-18 19:48:00,37.5,27.2,30.39,South,188,2.0,6.0,66,0.00,,,0.01,Wunderground v.1.15,2013-01-19 00:48:00,
2013-01-18 19:49:00,37.5,27.2,30.39,South,188,0.0,6.0,66,0.00,,,0.01,Wunderground v.1.15,2013-01-19 00:49:00,
2013-01-18 19:51:00,37.6,27.3,30.39,South,188,2.0,7.0,66,0.00,,,0.01,Wunderground v.1.15,2013-01-19 00:51:00,
2013-01-18 19:53:00,37.6,27.3,30.39,South,188,4.0,7.0,66,0.00,,,0.01,Wunderground v.1.15,2013-01-19 00:53:00,
2013-01-18 19:54:00,37.6,27.3,30.39,South,189,3.0,7.0,66,0.00,,,0.01,Wunderground v.1.15,2013-01-19 00:54:00,
2013-01-18 19:56:00,37.7,27.4,30.39,SSW,195,6.0,7.0,66,0.00,,,0.01,Wunderground v.1.15,2013-01-19 00:56:00,
2013-01-18 19:57:00,37.7,27.4,30.39,SSW,195,3.0,7.0,66,0.00,,,0.01,Wunderground v.1.15,2013-01-19 00:57:00,
2013-01-18 19:58:00,37.7,27.4,30.39,SSW,195,3.0,7.0,66,0.00,,,0.01,Wunderground v.1.15,2013-01-19 00:58:00,
2013-01-18 19:59:00,37.6,27.3,30.39,SSW,195,3.0,7.0,66,0.00,,,0.01,Wunderground v.1.15,2013-01-19 00:59:00,
2013-01-18 20:01:00,37.6,27.3,30.39,South,190,5.0,6.0,66,0.00,,,0.01,Wunderground v.1.15,2013-01-19 01:01:00,
2013-01-18 20:02:00,37.6,27.3,30.39,SSW,195,4.0,6.0,66,0.00,,,0.01,Wunderground v.1.15,2013-01-19 01:02:00,
2013-01-18 20:03:00,37.6,27.3,30.39,SSW,195,5.0,6.0,66,0.00,,,0.01,Wunderground v.1.15,2013-01-19 01:03:00,
2013-01-18 20:04:00,37.6,27.3,30.39,SSW,195,4.0,6.0,66,0.00,,,0.01,Wunderground v.1.15,2013-01-19 01:04:00,
2013-01-18 20:06:00,37.5,27.2,30.38,SSW,200,2.0,8.0,66,0.00,,,0.01,Wunderground v.1.15,2013-01-19 01:06:00,
2013-01-18 20:07:00,37.5,27.2,30.38,SSW,200,5.0,8.0,66,0.00,,,0.01,Wunderground v.1.15,2013-01-19 01:07:00,
2013-01-18 20:08:00,37.5,27.2,30.38,SSW,195,5.0,10.0,66,0.00,,,0.01,Wunderground v.1.15,2013-01-19 01:08:00,
2013-01-18 20:09:00,37.5,27.2,30.38,SSW,195,2.0,10.0,66,0.00,,,0.01,Wunderground v.1.15,2013-01-19 01:09:00,
2013-01-18 20:11:00,37.5,27.2,30.38,South,179,7.0,7.0,66,0.00,,,0.01,Wunderground v.1.15,2013-01-19 01:11:00,
2013-01-18 20:12:00,37.5,27.2,30.38,South,182,5.0,7.0,66,0.00,,,0.01,Wunderground v.1.15,2013-01-19 01:12:00,
2013-01-18 20:13:00,37.5,27.2,30.38,South,181,4.0,7.0,66,0.00,,,0.01,Wunderground v.1.15,2013-01-19 01:13:00,
2013-01-18 20:14:00,37.5,27.2,30.38,South,182,2.0,7.0,66,0.00,,,0.01,Wunderground v.1.15,2013-01-19 01:14:00,
2013-01-18 20:17:00,37.5,27.2,30.38,South,182,0.0,7.0,66,0.00,,,0.01,Wunderground v.1.15,2013-01-19 01:17:00,
2013-01-18 20:19:00,37.4,27.1,30.38,South,182,2.0,7.0,66,0.00,,,0.01,Wunderground v.1.15,2013-01-19 01:19:00,
2013-01-18 20:22:00,37.4,27.1,30.38,South,180,3.0,6.0,66,0.00,,,0.01,Wunderground v.1.15,2013-01-19 01:22:00,
2013-01-18 20:24:00,37.4,27.4,30.38,South,181,3.0,6.0,67,0.00,,,0.01,Wunderground v.1.15,2013-01-19 01:24:00,
2013-01-18 20:27:00,37.4,27.4,30.38,South,181,3.0,6.0,67,0.00,,,0.01,Wunderground v.1.15,2013-01-19 01:27:00,
2013-01-18 20:29:00,37.3,27.3,30.38,South,182,3.0,6.0,67,0.00,,,0.01,Wunderground v.1.15,2013-01-19 01:29:00,
2013-01-18 20:32:00,37.3,27.3,30.38,South,184,2.0,6.0,67,0.00,,,0.01,Wunderground v.1.15,2013-01-19 01:32:00,
2013-01-18 20:34:00,37.3,27.3,30.38,SSW,195,5.0,9.0,67,0.00,,,0.01,Wunderground v.1.15,2013-01-19 01:34:00,
2013-01-18 20:37:00,37.2,27.2,30.38,SSW,195,4.0,9.0,67,0.00,,,0.01,Wunderground v.1.15,2013-01-19 01:37:00,
2013-01-18 20:39:00,37.2,27.2,30.38,SSW,195,1.0,9.0,67,0.00,,,0.01,Wunderground v.1.15,2013-01-19 01:39:00,
2013-01-18 20:42:00,37.1,27.5,30.38,SSW,195,2.0,3.0,68,0.00,,,0.01,Wunderground v.1.15,2013-01-19 01:42:00,
2013-01-18 20:44:00,37.0,27.4,30.37,SSW,205,3.0,6.0,68,0.00,,,0.01,Wunderground v.1.15,2013-01-19 01:44:00,
2013-01-18 20:47:00,37.0,27.4,30.37,SSW,200,4.0,6.0,68,0.00,,,0.01,Wunderground v.1.15,2013-01-19 01:47:00,
2013-01-18 20:48:00,37.0,27.4,30.37,SSW,205,0.0,6.0,68,0.00,,,0.01,Wunderground v.1.15,2013-01-19 01:48:00,
2013-01-18 20:49:00,36.9,27.3,30.37,SSW,205,3.0,7.0,68,0.00,,,0.01,Wunderground v.1.15,2013-01-19 01:49:00,
2013-01-18 20:50:00,36.9,27.3,30.37,SSW,200,3.0,7.0,68,0.00,,,0.01,Wunderground v.1.15,2013-01-19 01:50:00,
2013-01-18 20:52:00,36.9,27.3,30.37,SSW,200,3.0,6.0,68,0.00,,,0.01,Wunderground v.1.15,2013-01-19 01:52:00,
2013-01-18 20:53:00,36.9,27.3,30.37,SSW,200,2.0,6.0,68,0.00,,,0.01,Wunderground v.1.15,2013-01-19 01:53:00,
2013-01-18 20:54:00,36.9,27.3,30.37,SSW,205,2.0,7.0,68,0.00,,,0.01,Wunderground v.1.15,2013-01-19 01:54:00,
2013-01-18 20:55:00,36.9,27.3,30.37,SSW,200,3.0,7.0,68,0.00,,,0.01,Wunderground v.1.15,2013-01-19 01:55:00,
2013-01-18 20:58:00,36.9,27.7,30.37,South,185,3.0,10.0,69,0.00,,,0.01,Wunderground v.1.15,2013-01-19 01:58:00,
2013-01-18 20:59:00,36.8,27.6,30.37,SSW,195,4.0,10.0,69,0.00,,,0.01,Wunderground v.1.15,2013-01-19 01:59:00,
2013-01-18 21:00:00,36.9,27.7,30.37,SSW,195,4.0,10.0,69,0.00,,,0.01,Wunderground v.1.15,2013-01-19 02:00:00,
2013-01-18 21:03:00,36.9,27.7,30.36,South,176,9.0,9.0,69,0.00,,,0.01,Wunderground v.1.15,2013-01-19 02:03:00,
2013-01-18 21:05:00,37.0,27.8,30.36,South,184,5.0,9.0,69,0.00,,,0.01,Wunderground v.1.15,2013-01-19 02:05:00,
2013-01-18 21:08:00,37.0,27.8,30.36,SW,214,4.0,13.0,69,0.00,,,0.01,Wunderground v.1.15,2013-01-19 02:08:00,
2013-01-18 21:10:00,37.0,27.8,30.36,South,183,4.0,7.0,69,0.00,,,0.01,Wunderground v.1.15,2013-01-19 02:10:00,
2013-01-18 21:13:00,37.0,27.8,30.36,South,190,5.0,7.0,69,0.00,,,0.01,Wunderground v.1.15,2013-01-19 02:13:00,
2013-01-18 21:15:00,37.0,27.8,30.36,South,186,3.0,7.0,69,0.00,,,0.01,Wunderground v.1.15,2013-01-19 02:15:00,
2013-01-18 21:18:00,37.0,27.8,30.36,South,191,2.0,7.0,69,0.00,,,0.01,Wunderground v.1.15,2013-01-19 02:18:00,
2013-01-18 21:20:00,36.9,27.7,30.36,South,186,8.0,8.0,69,0.00,,,0.01,Wunderground v.1.15,2013-01-19 02:20:00,
2013-01-18 21:21:00,36.9,27.7,30.36,South,186,6.0,8.0,69,0.00,,,0.01,Wunderground v.1.15,2013-01-19 02:21:00,
2013-01-18 21:23:00,36.9,27.7,30.36,South,186,4.0,8.0,69,0.00,,,0.01,Wunderground v.1.15,2013-01-19 02:23:00,
2013-01-18 21:25:00,36.8,27.6,30.36,South,185,3.0,8.0,69,0.00,,,0.01,Wunderground v.1.15,2013-01-19 02:25:00,
2013-01-18 21:26:00,36.8,27.6,30.36,South,185,2.0,8.0,69,0.00,,,0.01,Wunderground v.1.15,2013-01-19 02:26:00,
2013-01-18 21:28:00,36.7,27.5,30.36,South,184,13.0,13.0,69,0.00,,,0.01,Wunderground v.1.15,2013-01-19 02:28:00,
2013-01-18 21:29:00,36.7,27.5,30.36,South,176,2.0,13.0,69,0.00,,,0.01,Wunderground v.1.15,2013-01-19 02:29:00,
2013-01-18 21:31:00,36.7,27.5,30.36,South,176,3.0,4.0,69,0.00,,,0.01,Wunderground v.1.15,2013-01-19 02:31:00,
2013-01-18 21:33:00,36.6,27.4,30.36,South,177,5.0,6.0,69,0.00,,,0.01,Wunderground v.1.15,2013-01-19 02:33:00,
2013-01-18 21:34:00,36.6,27.7,30.36,South,177,5.0,6.0,70,0.00,,,0.01,Wunderground v.1.15,2013-01-19 02:34:00,
2013-01-18 21:36:00,36.5,27.6,30.36,South,178,4.0,6.0,70,0.00,,,0.01,Wunderground v.1.15,2013-01-19 02:36:00,
2013-01-18 21:37:00,36.5,27.6,30.36,South,177,2.0,6.0,70,0.00,,,0.01,Wunderground v.1.15,2013-01-19 02:37:00,
2013-01-18 21:38:00,36.5,27.6,30.36,South,178,5.0,6.0,70,0.00,,,0.01,Wunderground v.1.15,2013-01-19 02:38:00,
2013-01-18 21:39:00,36.5,27.6,30.36,South,178,3.0,6.0,70,0.00,,,0.01,Wunderground v.1.15,2013-01-19 02:39:00,
2013-01-18 21:41:00,36.5,27.6,30.36,South,179,0.0,5.0,70,0.00,,,0.01,Wunderground v.1.15,2013-01-19 02:41:00,
2013-01-18 21:42:00,36.5,27.6,30.36,South,179,4.0,5.0,70,0.00,,,0.01,Wunderground v.1.15,2013-01-19 02:42:00,
2013-01-18 21:43:00,36.4,27.5,30.36,South,178,3.0,5.0,70,0.00,,,0.01,Wunderground v.1.15,2013-01-19 02:43:00,
2013-01-18 21:45:00,36.4,27.5,30.36,South,179,2.0,5.0,70,0.00,,,0.01,Wunderground v.1.15,2013-01-19 02:45:00,
2013-01-18 21:47:00,36.4,27.5,30.36,South,182,2.0,7.0,70,0.00,,,0.01,Wunderground v.1.15,2013-01-19 02:47:00,
2013-01-18 21:48:00,36.4,27.5,30.36,South,184,2.0,9.0,70,0.00,,,0.01,Wunderground v.1.15,2013-01-19 02:48:00,
2013-01-18 21:50:00,36.4,27.5,30.36,South,186,5.0,5.0,70,0.00,,,0.01,Wunderground v.1.15,2013-01-19 02:50:00,
2013-01-18 21:52:00,36.5,27.6,30.36,SSW,195,3.0,13.0,70,0.00,,,0.01,Wunderground v.1.15,2013-01-19 02:52:00,
2013-01-18 21:53:00,36.5,27.6,30.36,SSW,195,1.0,13.0,70,0.00,,,0.01,Wunderground v.1.15,2013-01-19 02:53:00,
2013-01-18 21:55:00,36.6,27.7,30.36,SSW,195,3.0,13.0,70,0.00,,,0.01,Wunderground v.1.15,2013-01-19 02:55:00,
2013-01-18 21:57:00,36.6,27.7,30.36,SSW,200,6.0,13.0,70,0.00,,,0.01,Wunderground v.1.15,2013-01-19 02:57:00,
2013-01-18 21:58:00,36.7,27.8,30.36,SSW,200,2.0,13.0,70,0.00,,,0.01,Wunderground v.1.15,2013-01-19 02:58:00,
2013-01-18 22:00:00,36.7,27.5,30.35,South,188,4.0,8.0,69,0.00,,,0.01,Wunderground v.1.15,2013-01-19 03:00:00,
2013-01-18 22:02:00,36.8,27.6,30.35,South,188,5.0,8.0,69,0.00,,,0.01,Wunderground v.1.15,2013-01-19 03:02:00,
2013-01-18 22:03:00,36.8,27.6,30.35,South,190,6.0,10.0,69,0.00,,,0.01,Wunderground v.1.15,2013-01-19 03:03:00,
2013-01-18 22:05:00,36.9,27.7,30.35,SSW,210,4.0,10.0,69,0.00,,,0.01,Wunderground v.1.15,2013-01-19 03:05:00,
2013-01-18 22:07:00,36.9,27.7,30.35,SSW,213,4.0,11.0,69,0.00,,,0.01,Wunderground v.1.15,2013-01-19 03:07:00,
2013-01-18 22:08:00,36.9,27.7,30.35,SW,216,13.0,13.0,69,0.00,,,0.01,Wunderground v.1.15,2013-01-19 03:08:00,
2013-01-18 22:11:00,37.1,27.9,30.35,SSW,213,6.0,10.0,69,0.00,,,0.01,Wunderground v.1.15,2013-01-19 03:11:00,
2013-01-18 22:13:00,37.1,27.9,30.35,SSW,213,2.0,10.0,69,0.00,,,0.01,Wunderground v.1.15,2013-01-19 03:13:00,
2013-01-18 22:16:00,37.2,28.0,30.35,South,188,8.0,10.0,69,0.00,,,0.01,Wunderground v.1.15,2013-01-19 03:16:00,
2013-01-18 22:18:00,37.2,28.0,30.35,SSW,209,3.0,10.0,69,0.00,,,0.01,Wunderground v.1.15,2013-01-19 03:18:00,
2013-01-18 22:21:00,37.3,27.7,30.35,SSW,209,3.0,6.0,68,0.00,,,0.01,Wunderground v.1.15,2013-01-19 03:21:00,
2013-01-18 22:23:00,37.4,27.8,30.35,SSW,195,3.0,7.0,68,0.00,,,0.01,Wunderground v.1.15,2013-01-19 03:23:00,
2013-01-18 22:24:00,37.4,27.8,30.35,SSW,200,5.0,7.0,68,0.00,,,0.01,Wunderground v.1.15,2013-01-19 03:24:00,
2013-01-18 22:26:00,37.4,27.8,30.35,South,188,4.0,13.0,68,0.00,,,0.01,Wunderground v.1.15,2013-01-19 03:26:00,
2013-01-18 22:28:00,37.4,27.8,30.35,SSW,195,9.0,13.0,68,0.00,,,0.01,Wunderground v.1.15,2013-01-19 03:28:00,
2013-01-18 22:29:00,37.4,27.8,30.35,SSW,195,2.0,13.0,68,0.00,,,0.01,Wunderground v.1.15,2013-01-19 03:29:00,
2013-01-18 22:31:00,37.4,27.8,30.35,SSW,200,7.0,12.0,68,0.00,,,0.01,Wunderground v.1.15,2013-01-19 03:31:00,
2013-01-18 22:33:00,37.5,27.9,30.35,SW,224,2.0,12.0,68,0.00,,,0.01,Wunderground v.1.15,2013-01-19 03:33:00,
2013-01-18 22:35:00,37.5,27.9,30.34,SSW,205,6.0,13.0,68,0.00,,,0.01,Wunderground v.1.15,2013-01-19 03:35:00,
2013-01-18 22:36:00,37.5,27.9,30.34,SSW,205,4.0,13.0,68,0.00,,,0.01,Wunderground v.1.15,2013-01-19 03:36:00,
2013-01-18 22:38:00,37.6,28.0,30.34,SSW,195,4.0,13.0,68,0.00,,,0.01,Wunderground v.1.15,2013-01-19 03:38:00,
2013-01-18 22:39:00,37.6,28.0,30.34,SSW,195,5.0,13.0,68,0.00,,,0.01,Wunderground v.1.15,2013-01-19 03:39:00,
2013-01-18 22:40:00,37.7,28.1,30.34,SSW,205,6.0,6.0,68,0.00,,,0.01,Wunderground v.1.15,2013-01-19 03:40:00,
2013-01-18 22:41:00,37.7,28.1,30.34,SW,215,3.0,11.0,68,0.00,,,0.01,Wunderground v.1.15,2013-01-19 03:41:00,
2013-01-18 22:43:00,37.7,28.1,30.34,SSW,200,5.0,11.0,68,0.00,,,0.01,Wunderground v.1.15,2013-01-19 03:43:00,
2013-01-18 22:45:00,37.7,28.1,30.34,SSW,200,5.0,11.0,68,0.00,,,0.01,Wunderground v.1.15,2013-01-19 03:45:00,
2013-01-18 22:47:00,37.6,28.0,30.34,SSW,209,5.0,11.0,68,0.00,,,0.01,Wunderground v.1.15,2013-01-19 03:47:00,
2013-01-18 22:48:00,37.7,28.1,30.34,SSW,195,11.0,11.0,68,0.00,,,0.01,Wunderground v.1.15,2013-01-19 03:48:00,
2013-01-18 22:50:00,37.6,28.0,30.34,SSW,200,2.0,5.0,68,0.00,,,0.01,Wunderground v.1.15,2013-01-19 03:50:00,
2013-01-18 22:52:00,37.6,28.0,30.34,SSW,209,2.0,10.0,68,0.00,,,0.01,Wunderground v.1.15,2013-01-19 03:52:00,
2013-01-18 22:54:00,37.7,28.1,30.34,SW,219,3.0,10.0,68,0.00,,,0.01,Wunderground v.1.15,2013-01-19 03:54:00,
2013-01-18 22:55:00,37.6,28.0,30.34,SSW,209,3.0,10.0,68,0.00,,,0.01,Wunderground v.1.15,2013-01-19 03:55:00,
2013-01-18 22:56:00,37.6,28.0,30.34,SSW,209,3.0,10.0,68,0.00,,,0.01,Wunderground v.1.15,2013-01-19 03:56:00,
2013-01-18 22:57:00,37.6,28.0,30.34,SW,228,4.0,15.0,68,0.00,,,0.02,Wunderground v.1.15,2013-01-19 03:57:00,
2013-01-18 22:59:00,37.7,28.1,30.34,SW,228,0.0,15.0,68,0.00,,,0.02,Wunderground v.1.15,2013-01-19 03:59:00,
2013-01-18 23:00:00,37.6,28.0,30.33,SW,234,2.0,6.0,68,0.00,,,0.02,Wunderground v.1.15,2013-01-19 04:00:00,
2013-01-18 23:01:00,37.6,28.0,30.33,SW,218,10.0,10.0,68,0.00,,,0.02,Wunderground v.1.15,2013-01-19 04:01:00,
2013-01-18 23:02:00,37.7,28.1,30.34,SW,215,2.0,11.0,68,0.00,,,0.02,Wunderground v.1.15,2013-01-19 04:02:00,
2013-01-18 23:04:00,37.7,28.1,30.34,SSW,200,3.0,11.0,68,0.00,,,0.02,Wunderground v.1.15,2013-01-19 04:04:00,
2013-01-18 23:06:00,37.6,28.0,30.33,SSW,200,4.0,11.0,68,0.00,,,0.02,Wunderground v.1.15,2013-01-19 04:06:00,
2013-01-18 23:07:00,37.7,28.1,30.33,SSW,209,3.0,11.0,68,0.00,,,0.02,Wunderground v.1.15,2013-01-19 04:07:00,
2013-01-18 23:09:00,37.6,28.0,30.33,SSW,211,9.0,11.0,68,0.00,,,0.02,Wunderground v.1.15,2013-01-19 04:09:00,
2013-01-18 23:11:00,37.6,28.0,30.33,SSW,205,3.0,12.0,68,0.00,,,0.02,Wunderground v.1.15,2013-01-19 04:11:00,
2013-01-18 23:12:00,37.6,28.0,30.33,SSW,211,6.0,12.0,68,0.00,,,0.02,Wunderground v.1.15,2013-01-19 04:12:00,
2013-01-18 23:14:00,37.6,28.0,30.33,SW,215,3.0,12.0,68,0.00,,,0.02,Wunderground v.1.15,2013-01-19 04:14:00,
2013-01-18 23:16:00,37.6,28.0,30.33,SW,219,3.0,12.0,68,0.00,,,0.02,Wunderground v.1.15,2013-01-19 04:16:00,
2013-01-18 23:17:00,37.7,28.1,30.33,SW,215,3.0,12.0,68,0.00,,,0.02,Wunderground v.1.15,2013-01-19 04:17:00,
2013-01-18 23:19:00,37.7,28.1,30.33,SSW,213,6.0,12.0,68,0.00,,,0.02,Wunderground v.1.15,2013-01-19 04:19:00,
2013-01-18 23:22:00,37.7,28.1,30.33,SW,222,5.0,7.0,68,0.00,,,0.02,Wunderground v.1.15,2013-01-19 04:22:00,
2013-01-18 23:23:00,37.8,28.2,30.33,SW,224,3.0,7.0,68,0.00,,,0.02,Wunderground v.1.15,2013-01-19 04:23:00,
2013-01-18 23:24:00,37.8,28.2,30.33,SSW,211,5.0,9.0,68,0.00,,,0.02,Wunderground v.1.15,2013-01-19 04:24:00,
2013-01-18 23:27:00,37.8,28.2,30.33,SW,219,9.0,9.0,68,0.00,,,0.02,Wunderground v.1.15,2013-01-19 04:27:00,
2013-01-18 23:28:00,37.8,28.2,30.33,WSW,246,5.0,9.0,68,0.00,,,0.02,Wunderground v.1.15,2013-01-19 04:28:00,
2013-01-18 23:30:00,37.9,27.9,30.33,WSW,242,1.0,5.0,67,0.00,,,0.02,Wunderground v.1.15,2013-01-19 04:30:00,
2013-01-18 23:32:00,37.9,27.9,30.33,SW,232,3.0,11.0,67,0.00,,,0.02,Wunderground v.1.15,2013-01-19 04:32:00,
2013-01-18 23:33:00,37.9,27.9,30.33,SW,232,4.0,11.0,67,0.00,,,0.02,Wunderground v.1.15,2013-01-19 04:33:00,
2013-01-18 23:35:00,38.0,28.0,30.32,SW,223,12.0,15.0,67,0.00,,,0.02,Wunderground v.1.15,2013-01-19 04:35:00,
2013-01-18 23:37:00,38.1,28.1,30.33,SSW,205,10.0,15.0,67,0.00,,,0.02,Wunderground v.1.15,2013-01-19 04:37:00,
2013-01-18 23:38:00,38.1,28.1,30.33,SW,228,4.0,15.0,67,0.00,,,0.02,Wunderground v.1.15,2013-01-19 04:38:00,
2013-01-18 23:40:00,38.2,28.2,30.33,SW,221,5.0,7.0,67,0.00,,,0.02,Wunderground v.1.15,2013-01-19 04:40:00,
2013-01-18 23:42:00,38.3,28.3,30.32,SW,229,5.0,14.0,67,0.00,,,0.02,Wunderground v.1.15,2013-01-19 04:42:00,
2013-01-18 23:43:00,38.3,28.3,30.32,SW,230,5.0,14.0,67,0.00,,,0.02,Wunderground v.1.15,2013-01-19 04:43:00,
2013-01-18 23:45:00,38.4,28.0,30.32,SW,224,9.0,14.0,66,0.00,,,0.02,Wunderground v.1.15,2013-01-19 04:45:00,
2013-01-18 23:48:00,38.5,28.1,30.32,SW,229,5.0,14.0,66,0.00,,,0.02,Wunderground v.1.15,2013-01-19 04:48:00,
2013-01-18 23:50:00,38.6,28.2,30.32,SW,232,6.0,11.0,66,0.00,,,0.02,Wunderground v.1.15,2013-01-19 04:50:00,
2013-01-18 23:53:00,38.6,28.2,30.32,SW,233,6.0,11.0,66,0.00,,,0.02,Wunderground v.1.15,2013-01-19 04:53:00,
2013-01-18 23:55:00,38.6,28.2,30.32,WSW,238,11.0,12.0,66,0.00,,,0.02,Wunderground v.1.15,2013-01-19 04:55:00,
2013-01-18 23:58:00,38.6,28.2,30.32,SW,236,4.0,12.0,66,0.00,,,0.02,Wunderground v.1.15,2013-01-19 04:58:00,
2013-01-18 23:59:00,38.6,28.2,30.33,SSW,210,12.0,12.0,66,0.00,,,0.02,Wunderground v.1.15,2013-01-19 04:59:00,